Observation data for Bootleg on 05/24/2020      Previous  Date  Next       Current Mesonet Observations  Soil Data  Daily Summary Page  Observations in Plain Language
KBO1 240500Z 16011KT 16/10 A2986 RMK A01 T01640097  RH  064%=      5-min Rain = 0
KBO1 240501Z 16012KT 17/10 A2986 RMK A01 T01650097  RH  064%=      5-min Rain = 0
KBO1 240502Z 16013KT 17/10 A2986 RMK A01 T01650097  RH  064%=      5-min Rain = 0
KBO1 240503Z 16012KT 17/10 A2986 RMK A01 T01660097  RH  064%=      5-min Rain = 0
KBO1 240504Z 15013KT 17/10 A2986 RMK A01 T01660097  RH  064%=      5-min Rain = 0
KBO1 240505Z 15013KT 17/10 A2986 RMK A01 T01670097  RH  063%=      5-min Rain = 0
KBO1 240506Z 15013KT 17/10 A2986 RMK A01 T01670097  RH  063%=      5-min Rain = 0
KBO1 240507Z 16014KT 17/10 A2986 RMK A01 T01670097  RH  063%=      5-min Rain = 0
KBO1 240508Z 15014KT 17/10 A2986 RMK A01 T01690097  RH  063%=      5-min Rain = 0
KBO1 240509Z 15014KT 17/10 A2986 RMK A01 T01690097  RH  062%=      5-min Rain = 0
KBO1 240510Z 15015KT 17/10 A2986 RMK A01 T01700098  RH  062%=      5-min Rain = 0
KBO1 240511Z 15014KT 17/10 A2986 RMK A01 T01700098  RH  062%=      5-min Rain = 0
KBO1 240512Z 15013KT 17/10 A2986 RMK A01 T01700098  RH  062%=      5-min Rain = 0
KBO1 240513Z 15014KT 17/10 A2986 RMK A01 T01700098  RH  062%=      5-min Rain = 0
KBO1 240514Z 15013KT 17/10 A2987 RMK A01 T01700098  RH  062%=      5-min Rain = 0
KBO1 240515Z 15013KT 17/10 A2987 RMK A01 T01690097  RH  062%=      5-min Rain = 0
KBO1 240516Z 15013KT 17/10 A2986 RMK A01 T01680097  RH  063%=      5-min Rain = 0
KBO1 240517Z 15014KT 17/10 A2986 RMK A01 T01680097  RH  063%=      5-min Rain = 0
KBO1 240518Z 15014KT 17/10 A2986 RMK A01 T01680097  RH  063%=      5-min Rain = 0
KBO1 240519Z 15014KT 17/10 A2986 RMK A01 T01670097  RH  063%=      5-min Rain = 0
KBO1 240520Z 15015KT 17/10 A2986 RMK A01 T01670098  RH  063%=      5-min Rain = 0
KBO1 240521Z 16016KT 17/10 A2986 RMK A01 T01670098  RH  063%=      5-min Rain = 0
KBO1 240522Z 16015KT 17/10 A2986 RMK A01 T01670097  RH  063%=      5-min Rain = 0
KBO1 240523Z 16013KT 17/10 A2986 RMK A01 T01670097  RH  063%=      5-min Rain = 0
KBO1 240524Z 16015KT 17/10 A2986 RMK A01 T01670097  RH  063%=      5-min Rain = 0
KBO1 240525Z 16013KT 17/10 A2986 RMK A01 T01670097  RH  063%=      5-min Rain = 0
KBO1 240526Z 16014KT 17/10 A2986 RMK A01 T01670097  RH  063%=      5-min Rain = 0
KBO1 240527Z 16014KT 17/10 A2986 RMK A01 T01660097  RH  064%=      5-min Rain = 0
KBO1 240528Z 17012KT 17/10 A2986 RMK A01 T01670097  RH  064%=      5-min Rain = 0
KBO1 240529Z 17013KT 17/10 A2986 RMK A01 T01660097  RH  064%=      5-min Rain = 0
KBO1 240530Z 17012KT 17/10 A2986 RMK A01 T01660097  RH  064%=      5-min Rain = 0
KBO1 240531Z 16013KT 17/10 A2986 RMK A01 T01650097  RH  064%=      5-min Rain = 0
KBO1 240532Z 16013KT 17/10 A2986 RMK A01 T01650097  RH  064%=      5-min Rain = 0
KBO1 240533Z 17013KT 17/10 A2986 RMK A01 T01650098  RH  064%=      5-min Rain = 0
KBO1 240534Z 17015KT 17/10 A2986 RMK A01 T01650097  RH  064%=      5-min Rain = 0
KBO1 240535Z 16012KT 17/10 A2986 RMK A01 T01650098  RH  064%=      5-min Rain = 0
KBO1 240536Z 16012KT 17/10 A2986 RMK A01 T01650098  RH  064%=      5-min Rain = 0
KBO1 240537Z 16014KT 17/10 A2986 RMK A01 T01650098  RH  065%=      5-min Rain = 0
KBO1 240538Z 16014KT 17/10 A2986 RMK A01 T01650098  RH  065%=      5-min Rain = 0
KBO1 240539Z 16015KT 17/10 A2986 RMK A01 T01660099  RH  065%=      5-min Rain = 0
KBO1 240540Z 16014KT 17/10 A2986 RMK A01 T01660099  RH  064%=      5-min Rain = 0
KBO1 240541Z 17015KT 17/10 A2986 RMK A01 T01670099  RH  064%=      5-min Rain = 0
KBO1 240542Z 17014KT 17/10 A2986 RMK A01 T01670099  RH  064%=      5-min Rain = 0
KBO1 240543Z 16014KT 17/10 A2986 RMK A01 T01660099  RH  065%=      5-min Rain = 0
KBO1 240544Z 16014KT 17/10 A2986 RMK A01 T01660100  RH  065%=      5-min Rain = 0
KBO1 240545Z 16015KT 17/10 A2986 RMK A01 T01660100  RH  065%=      5-min Rain = 0
KBO1 240546Z 16013KT 17/10 A2986 RMK A01 T01660099  RH  065%=      5-min Rain = 0
KBO1 240547Z 16017KT 17/10 A2986 RMK A01 T01660100  RH  065%=      5-min Rain = 0
KBO1 240548Z 16017KT 17/10 A2986 RMK A01 T01670100  RH  065%=      5-min Rain = 0
KBO1 240549Z 16014KT 17/10 A2986 RMK A01 T01670100  RH  065%=      5-min Rain = 0
KBO1 240550Z 16015KT 17/10 A2986 RMK A01 T01670100  RH  064%=      5-min Rain = 0
KBO1 240551Z 16014KT 17/10 A2986 RMK A01 T01670100  RH  065%=      5-min Rain = 0
KBO1 240552Z 16015KT 17/10 A2986 RMK A01 T01660100  RH  065%=      5-min Rain = 0
KBO1 240553Z 16015KT 17/10 A2986 RMK A01 T01660100  RH  065%=      5-min Rain = 0
KBO1 240554Z 16016KT 17/10 A2986 RMK A01 T01660100  RH  065%=      5-min Rain = 0
KBO1 240555Z 16013KT 17/10 A2986 RMK A01 T01660100  RH  065%=      5-min Rain = 0
KBO1 240556Z 16014KT 17/10 A2986 RMK A01 T01650100  RH  065%=      5-min Rain = 0
KBO1 240557Z 17015KT 17/10 A2986 RMK A01 T01650100  RH  065%=      5-min Rain = 0
KBO1 240558Z 17014KT 16/10 A2986 RMK A01 T01640100  RH  066%=      5-min Rain = 0
KBO1 240559Z 17014KT 16/10 A2986 RMK A01 T01640100  RH  066%=      5-min Rain = 0
KBO1 240600Z 17014KT 16/10 A2986 RMK A01 T01640100  RH  066%=      5-min Rain = 0
KBO1 240601Z 17013KT 16/10 A2986 RMK A01 T01640100  RH  066%=      5-min Rain = 0
KBO1 240602Z 17013KT 16/10 A2986 RMK A01 T01630099  RH  066%=      5-min Rain = 0
KBO1 240603Z 17012KT 16/10 A2986 RMK A01 T01630100  RH  066%=      5-min Rain = 0
KBO1 240604Z 17014KT 16/10 A2986 RMK A01 T01630100  RH  066%=      5-min Rain = 0
KBO1 240605Z 17015KT 16/10 A2986 RMK A01 T01630100  RH  066%=      5-min Rain = 0
KBO1 240606Z 17013KT 16/10 A2986 RMK A01 T01640100  RH  066%=      5-min Rain = 0
KBO1 240607Z 17015KT 16/10 A2986 RMK A01 T01640101  RH  066%=      5-min Rain = 0
KBO1 240608Z 17014KT 16/10 A2986 RMK A01 T01640100  RH  066%=      5-min Rain = 0
KBO1 240609Z 17013KT 16/10 A2986 RMK A01 T01640101  RH  066%=      5-min Rain = 0
KBO1 240610Z 17015KT 16/10 A2986 RMK A01 T01630101  RH  066%=      5-min Rain = 0
KBO1 240611Z 17014KT 16/10 A2986 RMK A01 T01630101  RH  066%=      5-min Rain = 0
KBO1 240612Z 17013KT 16/10 A2986 RMK A01 T01630101  RH  066%=      5-min Rain = 0
KBO1 240613Z 17014KT 16/10 A2986 RMK A01 T01630101  RH  067%=      5-min Rain = 0
KBO1 240614Z 17013KT 16/10 A2986 RMK A01 T01620101  RH  067%=      5-min Rain = 0
KBO1 240615Z 17013KT 16/10 A2986 RMK A01 T01620101  RH  067%=      5-min Rain = 0
KBO1 240616Z 17014KT 16/10 A2986 RMK A01 T01620101  RH  067%=      5-min Rain = 0
KBO1 240617Z 17013KT 16/10 A2986 RMK A01 T01610101  RH  067%=      5-min Rain = 0
KBO1 240618Z 17014KT 16/10 A2986 RMK A01 T01610101  RH  067%=      5-min Rain = 0
KBO1 240619Z 17015KT 16/10 A2986 RMK A01 T01610101  RH  068%=      5-min Rain = 0
KBO1 240620Z 17014KT 16/10 A2986 RMK A01 T01600101  RH  068%=      5-min Rain = 0
KBO1 240621Z 17014KT 16/10 A2986 RMK A01 T01600101  RH  068%=      5-min Rain = 0
KBO1 240622Z 17015KT 16/10 A2986 RMK A01 T01600101  RH  068%=      5-min Rain = 0
KBO1 240623Z 17015KT 16/10 A2986 RMK A01 T01590101  RH  068%=      5-min Rain = 0
KBO1 240624Z 17014KT 16/10 A2986 RMK A01 T01590101  RH  068%=      5-min Rain = 0
KBO1 240625Z 17015KT 16/10 A2986 RMK A01 T01590101  RH  068%=      5-min Rain = 0
KBO1 240626Z 17014KT 16/10 A2986 RMK A01 T01580101  RH  069%=      5-min Rain = 0
KBO1 240627Z 17015KT 16/10 A2986 RMK A01 T01570100  RH  069%=      5-min Rain = 0
KBO1 240628Z 17014KT 16/10 A2986 RMK A01 T01570100  RH  069%=      5-min Rain = 0
KBO1 240629Z 17014KT 16/10 A2986 RMK A01 T01570100  RH  069%=      5-min Rain = 0
KBO1 240630Z 17013KT 16/10 A2986 RMK A01 T01570100  RH  069%=      5-min Rain = 0
KBO1 240631Z 17013KT 16/10 A2986 RMK A01 T01570100  RH  069%=      5-min Rain = 0
KBO1 240632Z 17013KT 16/10 A2986 RMK A01 T01560100  RH  069%=      5-min Rain = 0
KBO1 240633Z 17014KT 16/10 A2986 RMK A01 T01550100  RH  070%=      5-min Rain = 0
KBO1 240634Z 17014KT 16/10 A2986 RMK A01 T01550100  RH  070%=      5-min Rain = 0
KBO1 240635Z 17014KT 16/10 A2986 RMK A01 T01550100  RH  070%=      5-min Rain = 0
KBO1 240636Z 17014KT 16/10 A2986 RMK A01 T01550100  RH  070%=      5-min Rain = 0
KBO1 240637Z 17013KT 16/10 A2986 RMK A01 T01550100  RH  070%=      5-min Rain = 0
KBO1 240638Z 17012KT 15/10 A2986 RMK A01 T01540100  RH  070%=      5-min Rain = 0
KBO1 240639Z 17012KT 15/10 A2986 RMK A01 T01540100  RH  070%=      5-min Rain = 0
KBO1 240640Z 17011KT 15/10 A2986 RMK A01 T01530100  RH  070%=      5-min Rain = 0
KBO1 240641Z 17012KT 15/10 A2986 RMK A01 T01520099  RH  071%=      5-min Rain = 0
KBO1 240642Z 17012KT 15/10 A2986 RMK A01 T01510100  RH  071%=      5-min Rain = 0
KBO1 240643Z 17013KT 15/10 A2986 RMK A01 T01510099  RH  071%=      5-min Rain = 0
KBO1 240644Z 17013KT 15/10 A2986 RMK A01 T01510100  RH  072%=      5-min Rain = 0
KBO1 240645Z 17011KT 15/10 A2986 RMK A01 T01500099  RH  072%=      5-min Rain = 0
KBO1 240646Z 17012KT 15/10 A2986 RMK A01 T01510100  RH  072%=      5-min Rain = 0
KBO1 240647Z 17012KT 15/10 A2986 RMK A01 T01500100  RH  072%=      5-min Rain = 0
KBO1 240648Z 17012KT 15/10 A2986 RMK A01 T01500100  RH  072%=      5-min Rain = 0
KBO1 240649Z 17012KT 15/10 A2986 RMK A01 T01500100  RH  072%=      5-min Rain = 0
KBO1 240650Z 17011KT 15/10 A2986 RMK A01 T01500100  RH  072%=      5-min Rain = 0
KBO1 240651Z 17011KT 15/10 A2985 RMK A01 T01500100  RH  072%=      5-min Rain = 0
KBO1 240652Z 17011KT 15/10 A2985 RMK A01 T01490100  RH  072%=      5-min Rain = 0
KBO1 240653Z 17011KT 15/10 A2985 RMK A01 T01490100  RH  072%=      5-min Rain = 0
KBO1 240654Z 17011KT 15/10 A2985 RMK A01 T01480100  RH  073%=      5-min Rain = 0
KBO1 240655Z 17012KT 15/10 A2985 RMK A01 T01480100  RH  073%=      5-min Rain = 0
KBO1 240656Z 17011KT 15/10 A2985 RMK A01 T01480100  RH  073%=      5-min Rain = 0
KBO1 240657Z 17011KT 15/10 A2985 RMK A01 T01480100  RH  073%=      5-min Rain = 0
KBO1 240658Z 17011KT 15/10 A2985 RMK A01 T01480100  RH  073%=      5-min Rain = 0
KBO1 240659Z 17011KT 15/10 A2986 RMK A01 T01480101  RH  073%=      5-min Rain = 0
KBO1 240700Z 17012KT 15/10 A2986 RMK A01 T01470100  RH  073%=      5-min Rain = 0
KBO1 240701Z 17012KT 15/10 A2986 RMK A01 T01470100  RH  074%=      5-min Rain = 0
KBO1 240702Z 17012KT 15/10 A2986 RMK A01 T01470100  RH  074%=      5-min Rain = 0
KBO1 240703Z 17012KT 15/10 A2986 RMK A01 T01470101  RH  074%=      5-min Rain = 0
KBO1 240704Z 17013KT 15/10 A2985 RMK A01 T01470101  RH  073%=      5-min Rain = 0
KBO1 240705Z 17012KT 15/10 A2986 RMK A01 T01480102  RH  073%=      5-min Rain = 0
KBO1 240706Z 17013KT 15/10 A2986 RMK A01 T01490101  RH  073%=      5-min Rain = 0
KBO1 240707Z 17014KT 15/10 A2985 RMK A01 T01490101  RH  073%=      5-min Rain = 0
KBO1 240708Z 17012KT 15/10 A2985 RMK A01 T01490102  RH  073%=      5-min Rain = 0
KBO1 240709Z 17013KT 15/10 A2985 RMK A01 T01500102  RH  073%=      5-min Rain = 0
KBO1 240710Z 17013KT 15/10 A2985 RMK A01 T01500102  RH  073%=      5-min Rain = 0
KBO1 240711Z 17013KT 15/10 A2985 RMK A01 T01500102  RH  073%=      5-min Rain = 0
KBO1 240712Z 17013KT 15/10 A2985 RMK A01 T01500103  RH  073%=      5-min Rain = 0
KBO1 240713Z 17012KT 15/10 A2985 RMK A01 T01490102  RH  073%=      5-min Rain = 0
KBO1 240714Z 17012KT 15/10 A2985 RMK A01 T01490102  RH  073%=      5-min Rain = 0
KBO1 240715Z 18013KT 15/10 A2985 RMK A01 T01480102  RH  074%=      5-min Rain = 0
KBO1 240716Z 17012KT 15/10 A2985 RMK A01 T01480102  RH  074%=      5-min Rain = 0
KBO1 240717Z 18013KT 15/10 A2985 RMK A01 T01480102  RH  074%=      5-min Rain = 0
KBO1 240718Z 17014KT 15/10 A2985 RMK A01 T01480102  RH  074%=      5-min Rain = 0
KBO1 240719Z 17014KT 15/10 A2985 RMK A01 T01490102  RH  074%=      5-min Rain = 0
KBO1 240720Z 17013KT 15/10 A2985 RMK A01 T01490102  RH  073%=      5-min Rain = 0
KBO1 240721Z 17015KT 15/10 A2985 RMK A01 T01490102  RH  073%=      5-min Rain = 0
KBO1 240722Z 17014KT 15/10 A2985 RMK A01 T01500103  RH  073%=      5-min Rain = 0
KBO1 240723Z 17016KT 15/10 A2985 RMK A01 T01500103  RH  073%=      5-min Rain = 0
KBO1 240724Z 17015KT 15/10 A2985 RMK A01 T01510103  RH  073%=      5-min Rain = 0
KBO1 240725Z 17014KT 15/10 A2985 RMK A01 T01510103  RH  073%=      5-min Rain = 0
KBO1 240726Z 17014KT 15/10 A2985 RMK A01 T01510103  RH  073%=      5-min Rain = 0
KBO1 240727Z 17015KT 15/10 A2985 RMK A01 T01500103  RH  073%=      5-min Rain = 0
KBO1 240728Z 17014KT 15/10 A2985 RMK A01 T01510103  RH  073%=      5-min Rain = 0
KBO1 240729Z 17015KT 15/10 A2985 RMK A01 T01510104  RH  073%=      5-min Rain = 0
KBO1 240730Z 17014KT 15/10 A2985 RMK A01 T01520104  RH  073%=      5-min Rain = 0
KBO1 240731Z 17013KT 15/10 A2985 RMK A01 T01520104  RH  073%=      5-min Rain = 0
KBO1 240732Z 17013KT 15/10 A2985 RMK A01 T01520104  RH  073%=      5-min Rain = 0
KBO1 240733Z 17013KT 15/10 A2985 RMK A01 T01510104  RH  073%=      5-min Rain = 0
KBO1 240734Z 17013KT 15/10 A2985 RMK A01 T01510104  RH  073%=      5-min Rain = 0
KBO1 240735Z 17015KT 15/10 A2985 RMK A01 T01500103  RH  074%=      5-min Rain = 0
KBO1 240736Z 18013KT 15/10 A2985 RMK A01 T01510104  RH  073%=      5-min Rain = 0
KBO1 240737Z 18012KT 15/10 A2985 RMK A01 T01510104  RH  073%=      5-min Rain = 0
KBO1 240738Z 18015KT 15/10 A2985 RMK A01 T01510104  RH  073%=      5-min Rain = 0
KBO1 240739Z 17016KT 15/10 A2985 RMK A01 T01520104  RH  073%=      5-min Rain = 0
KBO1 240740Z 18014KT 15/11 A2985 RMK A01 T01520105  RH  073%=      5-min Rain = 0
KBO1 240741Z 17015KT 15/10 A2985 RMK A01 T01520104  RH  073%=      5-min Rain = 0
KBO1 240742Z 18015KT 15/11 A2985 RMK A01 T01520105  RH  073%=      5-min Rain = 0
KBO1 240743Z 17014KT 15/11 A2985 RMK A01 T01520105  RH  073%=      5-min Rain = 0
KBO1 240744Z 17015KT 15/11 A2985 RMK A01 T01520105  RH  073%=      5-min Rain = 0
KBO1 240745Z 17015KT 15/11 A2985 RMK A01 T01520105  RH  073%=      5-min Rain = 0
KBO1 240746Z 17015KT 15/11 A2985 RMK A01 T01520105  RH  073%=      5-min Rain = 0
KBO1 240747Z 17017KT 15/10 A2985 RMK A01 T01520104  RH  073%=      5-min Rain = 0
KBO1 240748Z 17014KT 15/11 A2985 RMK A01 T01520105  RH  073%=      5-min Rain = 0
KBO1 240749Z 17015KT 15/10 A2985 RMK A01 T01520104  RH  073%=      5-min Rain = 0
KBO1 240750Z 17015KT 15/11 A2985 RMK A01 T01520105  RH  074%=      5-min Rain = 0
KBO1 240751Z 17016KT 15/11 A2985 RMK A01 T01520105  RH  074%=      5-min Rain = 0
KBO1 240752Z 17017KT 15/11 A2985 RMK A01 T01520106  RH  074%=      5-min Rain = 0
KBO1 240753Z 17015KT 15/11 A2985 RMK A01 T01530106  RH  074%=      5-min Rain = 0
KBO1 240754Z 17017KT 15/11 A2985 RMK A01 T01530106  RH  073%=      5-min Rain = 0
KBO1 240755Z 17017KT 15/11 A2985 RMK A01 T01530106  RH  073%=      5-min Rain = 0
KBO1 240756Z 17015KT 15/11 A2985 RMK A01 T01530106  RH  073%=      5-min Rain = 0
KBO1 240757Z 17017KT 15/11 A2985 RMK A01 T01530106  RH  073%=      5-min Rain = 0
KBO1 240758Z 17017KT 15/11 A2985 RMK A01 T01540106  RH  073%=      5-min Rain = 0
KBO1 240759Z 17016KT 15/11 A2985 RMK A01 T01540107  RH  074%=      5-min Rain = 0
KBO1 240800Z 17016KT 15/11 A2985 RMK A01 T01540107  RH  074%=      5-min Rain = 0
KBO1 240801Z 17017KT 15/11 A2985 RMK A01 T01540107  RH  074%=      5-min Rain = 0
KBO1 240802Z 17018G23KT 15/11 A2985 RMK A01 T01540107  RH  074%=      5-min Rain = 0
KBO1 240803Z 16017KT 16/11 A2985 RMK A01 T01550107  RH  073%=      5-min Rain = 0
KBO1 240804Z 16015KT 16/11 A2986 RMK A01 T01550107  RH  073%=      5-min Rain = 0
KBO1 240805Z 16017KT 15/11 A2985 RMK A01 T01540107  RH  073%=      5-min Rain = 0
KBO1 240806Z 16016KT 15/11 A2986 RMK A01 T01530107  RH  074%=      5-min Rain = 0
KBO1 240807Z 17016KT 15/11 A2986 RMK A01 T01530107  RH  074%=      5-min Rain = 0
KBO1 240808Z 16016KT 15/11 A2986 RMK A01 T01530107  RH  074%=      5-min Rain = 0
KBO1 240809Z 16017KT 15/11 A2986 RMK A01 T01530107  RH  074%=      5-min Rain = 0
KBO1 240810Z 16019KT 15/11 A2986 RMK A01 T01520107  RH  074%=      5-min Rain = 0
KBO1 240811Z 16019KT 15/11 A2986 RMK A01 T01530108  RH  075%=      5-min Rain = 0
KBO1 240812Z 17019G24KT 15/11 A2986 RMK A01 T01530108  RH  074%=      5-min Rain = 0
KBO1 240813Z 17019KT 15/11 A2986 RMK A01 T01540108  RH  074%=      5-min Rain = 0
KBO1 240814Z 17016KT 15/11 A2986 RMK A01 T01540108  RH  074%=      5-min Rain = 0
KBO1 240815Z 17018KT 15/11 A2986 RMK A01 T01540108  RH  074%=      5-min Rain = 0
KBO1 240816Z 17019KT 15/11 A2986 RMK A01 T01540109  RH  074%=      5-min Rain = 0
KBO1 240817Z 17016KT 15/11 A2986 RMK A01 T01540109  RH  074%=      5-min Rain = 0
KBO1 240818Z 17019G24KT 15/11 A2986 RMK A01 T01540109  RH  074%=      5-min Rain = 0
KBO1 240819Z 18019KT 15/11 A2986 RMK A01 T01540110  RH  075%=      5-min Rain = 0
KBO1 240820Z 17018KT 16/11 A2986 RMK A01 T01550110  RH  074%=      5-min Rain = 0
KBO1 240821Z 17019KT 16/11 A2986 RMK A01 T01550110  RH  075%=      5-min Rain = 0
KBO1 240822Z 17016KT 16/11 A2986 RMK A01 T01550110  RH  075%=      5-min Rain = 0
KBO1 240823Z 17018KT 16/11 A2986 RMK A01 T01550110  RH  075%=      5-min Rain = 0
KBO1 240824Z 17016G21KT 16/11 A2986 RMK A01 T01550111  RH  075%=      5-min Rain = 0
KBO1 240825Z 17019KT 16/11 A2986 RMK A01 T01550111  RH  075%=      5-min Rain = 0
KBO1 240826Z 17017KT 16/11 A2986 RMK A01 T01550111  RH  075%=      5-min Rain = 0
KBO1 240827Z 17017KT 16/11 A2986 RMK A01 T01550111  RH  075%=      5-min Rain = 0
KBO1 240828Z 17018KT 16/11 A2986 RMK A01 T01550111  RH  075%=      5-min Rain = 0
KBO1 240829Z 17017KT 16/11 A2986 RMK A01 T01550112  RH  076%=      5-min Rain = 0
KBO1 240830Z 17016G22KT 16/11 A2986 RMK A01 T01550112  RH  076%=      5-min Rain = 0
KBO1 240831Z 17020KT 15/11 A2986 RMK A01 T01540112  RH  076%=      5-min Rain = 0
KBO1 240832Z 17018KT 15/11 A2986 RMK A01 T01540112  RH  076%=      5-min Rain = 0
KBO1 240833Z 17016G21KT 15/11 A2986 RMK A01 T01540112  RH  076%=      5-min Rain = 0
KBO1 240834Z 17017KT 15/11 A2986 RMK A01 T01540112  RH  076%=      5-min Rain = 0
KBO1 240835Z 17017KT 15/11 A2986 RMK A01 T01540112  RH  076%=      5-min Rain = 0
KBO1 240836Z 17015KT 15/11 A2986 RMK A01 T01540112  RH  076%=      5-min Rain = 0
KBO1 240837Z 17017G23KT 15/11 A2986 RMK A01 T01540112  RH  076%=      5-min Rain = 0
KBO1 240838Z 17017G22KT 15/11 A2986 RMK A01 T01540113  RH  076%=      5-min Rain = 0
KBO1 240839Z 17018KT 15/11 A2986 RMK A01 T01540113  RH  076%=      5-min Rain = 0
KBO1 240840Z 17017KT 15/11 A2986 RMK A01 T01540113  RH  077%=      5-min Rain = 0
KBO1 240841Z 17018KT 15/11 A2986 RMK A01 T01540113  RH  076%=      5-min Rain = 0
KBO1 240842Z 17016KT 16/11 A2986 RMK A01 T01550114  RH  076%=      5-min Rain = 0
KBO1 240843Z 17018KT 16/11 A2986 RMK A01 T01550114  RH  076%=      5-min Rain = 0
KBO1 240844Z 17019KT 16/11 A2986 RMK A01 T01550114  RH  077%=      5-min Rain = 0
KBO1 240845Z 17018KT 16/11 A2986 RMK A01 T01550114  RH  076%=      5-min Rain = 0
KBO1 240846Z 17016KT 16/11 A2986 RMK A01 T01550114  RH  076%=      5-min Rain = 0
KBO1 240847Z 17018KT 16/11 A2986 RMK A01 T01550114  RH  076%=      5-min Rain = 0
KBO1 240848Z 17016KT 16/11 A2986 RMK A01 T01550114  RH  076%=      5-min Rain = 0
KBO1 240849Z 17018KT 15/11 A2986 RMK A01 T01540113  RH  076%=      5-min Rain = 0
KBO1 240850Z 17018KT 15/11 A2986 RMK A01 T01540113  RH  077%=      5-min Rain = 0
KBO1 240851Z 17018KT 15/11 A2986 RMK A01 T01540114  RH  077%=      5-min Rain = 0
KBO1 240852Z 17017KT 15/11 A2986 RMK A01 T01540113  RH  077%=      5-min Rain = 0
KBO1 240853Z 17016KT 15/11 A2986 RMK A01 T01540113  RH  077%=      5-min Rain = 0
KBO1 240854Z 17019KT 15/11 A2986 RMK A01 T01540113  RH  077%=      5-min Rain = 0
KBO1 240855Z 17018KT 15/11 A2986 RMK A01 T01540113  RH  076%=      5-min Rain = 0
KBO1 240856Z 17020KT 16/11 A2986 RMK A01 T01550113  RH  076%=      5-min Rain = 0
KBO1 240857Z 17018KT 16/11 A2986 RMK A01 T01550113  RH  076%=      5-min Rain = 0
KBO1 240858Z 17022KT 16/11 A2986 RMK A01 T01560113  RH  076%=      5-min Rain = 0
KBO1 240859Z 17020KT 16/11 A2986 RMK A01 T01560113  RH  075%=      5-min Rain = 0
KBO1 240900Z 17020G25KT 16/11 A2986 RMK A01 T01560113  RH  075%=      5-min Rain = 0
KBO1 240901Z 17022KT 16/11 A2986 RMK A01 T01570113  RH  075%=      5-min Rain = 0
KBO1 240902Z 17021KT 16/11 A2986 RMK A01 T01580113  RH  075%=      5-min Rain = 0
KBO1 240903Z 17022KT 16/11 A2986 RMK A01 T01580112  RH  074%=      5-min Rain = 0
KBO1 240904Z 17019KT 16/11 A2986 RMK A01 T01580112  RH  074%=      5-min Rain = 0
KBO1 240905Z 17018G24KT 16/11 A2986 RMK A01 T01580112  RH  074%=      5-min Rain = 0
KBO1 240906Z 17019KT 16/11 A2986 RMK A01 T01570112  RH  074%=      5-min Rain = 0
KBO1 240907Z 17019KT 16/11 A2986 RMK A01 T01570112  RH  074%=      5-min Rain = 0
KBO1 240908Z 17017KT 16/11 A2986 RMK A01 T01570112  RH  074%=      5-min Rain = 0
KBO1 240909Z 17018KT 16/11 A2986 RMK A01 T01570112  RH  074%=      5-min Rain = 0
KBO1 240910Z 17019KT 16/11 A2986 RMK A01 T01570112  RH  075%=      5-min Rain = 0
KBO1 240911Z 17017G22KT 16/11 A2987 RMK A01 T01570111  RH  074%=      5-min Rain = 0
KBO1 240912Z 17021KT 16/11 A2986 RMK A01 T01570112  RH  074%=      5-min Rain = 0
KBO1 240913Z 17020KT 16/11 A2987 RMK A01 T01570112  RH  074%=      5-min Rain = 0
KBO1 240914Z 17020KT 16/11 A2986 RMK A01 T01570112  RH  074%=      5-min Rain = 0
KBO1 240915Z 17020G25KT 16/11 A2986 RMK A01 T01580112  RH  074%=      5-min Rain = 0
KBO1 240916Z 17020G26KT 16/11 A2986 RMK A01 T01580112  RH  074%=      5-min Rain = 0
KBO1 240917Z 17022G27KT 16/11 A2986 RMK A01 T01580111  RH  074%=      5-min Rain = 0
KBO1 240918Z 17020G25KT 16/11 A2986 RMK A01 T01590111  RH  073%=      5-min Rain = 0
KBO1 240919Z 17021KT 16/11 A2986 RMK A01 T01590111  RH  073%=      5-min Rain = 0
KBO1 240920Z 17019G25KT 16/11 A2987 RMK A01 T01590112  RH  074%=      5-min Rain = 0
KBO1 240921Z 17020G25KT 16/11 A2987 RMK A01 T01590112  RH  074%=      5-min Rain = 0
KBO1 240922Z 17022G27KT 16/11 A2987 RMK A01 T01580111  RH  074%=      5-min Rain = 0
KBO1 240923Z 17022KT 16/11 A2987 RMK A01 T01580111  RH  074%=      5-min Rain = 0
KBO1 240924Z 17021KT 16/11 A2987 RMK A01 T01590111  RH  073%=      5-min Rain = 0
KBO1 240925Z 17019KT 16/11 A2987 RMK A01 T01590111  RH  073%=      5-min Rain = 0
KBO1 240926Z 17020KT 16/11 A2987 RMK A01 T01580111  RH  073%=      5-min Rain = 0
KBO1 240927Z 17019G25KT 16/11 A2987 RMK A01 T01580111  RH  074%=      5-min Rain = 0
KBO1 240928Z 17019KT 16/11 A2987 RMK A01 T01580111  RH  074%=      5-min Rain = 0
KBO1 240929Z 17022G28KT 16/11 A2987 RMK A01 T01570111  RH  074%=      5-min Rain = 0
KBO1 240930Z 17022KT 16/11 A2987 RMK A01 T01570111  RH  074%=      5-min Rain = 0
KBO1 240931Z 17022G27KT 16/11 A2987 RMK A01 T01570111  RH  074%=      5-min Rain = 0
KBO1 240932Z 17022KT 16/11 A2987 RMK A01 T01580111  RH  074%=      5-min Rain = 0
KBO1 240933Z 17020KT 16/11 A2987 RMK A01 T01580111  RH  074%=      5-min Rain = 0
KBO1 240934Z 17018KT 16/11 A2987 RMK A01 T01580111  RH  074%=      5-min Rain = 0
KBO1 240935Z 17019KT 16/11 A2987 RMK A01 T01570111  RH  074%=      5-min Rain = 0
KBO1 240936Z 18019KT 16/11 A2987 RMK A01 T01560111  RH  074%=      5-min Rain = 0
KBO1 240937Z 17017KT 16/11 A2987 RMK A01 T01560111  RH  075%=      5-min Rain = 0
KBO1 240938Z 18018KT 16/11 A2987 RMK A01 T01560111  RH  075%=      5-min Rain = 0
KBO1 240939Z 18018KT 16/11 A2987 RMK A01 T01560111  RH  075%=      5-min Rain = 0
KBO1 240940Z 18019KT 16/11 A2987 RMK A01 T01560111  RH  075%=      5-min Rain = 0
KBO1 240941Z 18021KT 16/11 A2987 RMK A01 T01560111  RH  075%=      5-min Rain = 0
KBO1 240942Z 18018G23KT 16/11 A2987 RMK A01 T01560111  RH  075%=      5-min Rain = 0
KBO1 240943Z 17018KT 16/11 A2987 RMK A01 T01560111  RH  075%=      5-min Rain = 0
KBO1 240944Z 17020KT 16/11 A2987 RMK A01 T01560111  RH  075%=      5-min Rain = 0
KBO1 240945Z 18022KT 16/11 A2987 RMK A01 T01560112  RH  075%=      5-min Rain = 0
KBO1 240946Z 18018KT 16/11 A2987 RMK A01 T01550111  RH  075%=      5-min Rain = 0
KBO1 240947Z 18017KT 16/11 A2987 RMK A01 T01550111  RH  075%=      5-min Rain = 0
KBO1 240948Z 18015KT 15/11 A2987 RMK A01 T01540111  RH  075%=      5-min Rain = 0
KBO1 240949Z 17018KT 15/11 A2987 RMK A01 T01520110  RH  076%=      5-min Rain = 0
KBO1 240950Z 18019KT 15/11 A2987 RMK A01 T01520111  RH  076%=      5-min Rain = 0
KBO1 240951Z 17019KT 15/11 A2987 RMK A01 T01520111  RH  076%=      5-min Rain = 0
KBO1 240952Z 18017KT 15/11 A2987 RMK A01 T01520111  RH  076%=      5-min Rain = 0
KBO1 240953Z 18017KT 15/11 A2987 RMK A01 T01520111  RH  076%=      5-min Rain = 0
KBO1 240954Z 18019KT 15/11 A2987 RMK A01 T01520111  RH  077%=      5-min Rain = 0
KBO1 240955Z 18017KT 15/11 A2987 RMK A01 T01520111  RH  076%=      5-min Rain = 0
KBO1 240956Z 18019KT 15/11 A2987 RMK A01 T01520111  RH  077%=      5-min Rain = 0
KBO1 240957Z 18018KT 15/11 A2987 RMK A01 T01520111  RH  077%=      5-min Rain = 0
KBO1 240958Z 18017KT 15/11 A2987 RMK A01 T01520111  RH  077%=      5-min Rain = 0
KBO1 240959Z 18018KT 15/11 A2987 RMK A01 T01520111  RH  077%=      5-min Rain = 0
KBO1 241000Z 18019KT 15/11 A2987 RMK A01 T01520111  RH  077%=      5-min Rain = 0
KBO1 241001Z 18017KT 15/11 A2987 RMK A01 T01510111  RH  077%=      5-min Rain = 0
KBO1 241002Z 18017KT 15/11 A2987 RMK A01 T01510111  RH  077%=      5-min Rain = 0
KBO1 241003Z 18018KT 15/11 A2987 RMK A01 T01500111  RH  077%=      5-min Rain = 0
KBO1 241004Z 18018KT 15/11 A2987 RMK A01 T01500111  RH  077%=      5-min Rain = 0
KBO1 241005Z 18019KT 15/11 A2987 RMK A01 T01500111  RH  077%=      5-min Rain = 0
KBO1 241006Z 18018KT 15/11 A2987 RMK A01 T01510111  RH  077%=      5-min Rain = 0
KBO1 241007Z 19016KT 15/11 A2987 RMK A01 T01510111  RH  077%=      5-min Rain = 0
KBO1 241008Z 19017KT 15/11 A2987 RMK A01 T01500111  RH  077%=      5-min Rain = 0
KBO1 241009Z 19017KT 15/11 A2987 RMK A01 T01500111  RH  078%=      5-min Rain = 0
KBO1 241010Z 19016KT 15/11 A2987 RMK A01 T01500111  RH  078%=      5-min Rain = 0
KBO1 241011Z 19017KT 15/11 A2987 RMK A01 T01500111  RH  078%=      5-min Rain = 0
KBO1 241012Z 19018KT 15/11 A2987 RMK A01 T01500112  RH  078%=      5-min Rain = 0
KBO1 241013Z 19017KT 15/11 A2987 RMK A01 T01490111  RH  078%=      5-min Rain = 0
KBO1 241014Z 19017KT 15/11 A2987 RMK A01 T01500111  RH  078%=      5-min Rain = 0
KBO1 241015Z 19017KT 15/11 A2987 RMK A01 T01500111  RH  078%=      5-min Rain = 0
KBO1 241016Z 19017KT 15/11 A2987 RMK A01 T01490111  RH  078%=      5-min Rain = 0
KBO1 241017Z 19016KT 15/11 A2987 RMK A01 T01490112  RH  078%=      5-min Rain = 0
KBO1 241018Z 19017KT 15/11 A2987 RMK A01 T01490112  RH  078%=      5-min Rain = 0
KBO1 241019Z 19017G22KT 15/11 A2987 RMK A01 T01480111  RH  079%=      5-min Rain = 0
KBO1 241020Z 19016KT 15/11 A2987 RMK A01 T01490112  RH  078%=      5-min Rain = 0
KBO1 241021Z 19016KT 15/11 A2987 RMK A01 T01490112  RH  078%=      5-min Rain = 0
KBO1 241022Z 19016KT 15/11 A2987 RMK A01 T01480112  RH  079%=      5-min Rain = 0
KBO1 241023Z 20017KT 15/11 A2987 RMK A01 T01480111  RH  079%=      5-min Rain = 0
KBO1 241024Z 19016KT 15/11 A2987 RMK A01 T01490112  RH  079%=      5-min Rain = 0
KBO1 241025Z 19017KT 15/11 A2986 RMK A01 T01480112  RH  079%=      5-min Rain = 0
KBO1 241026Z 19018KT 15/11 A2986 RMK A01 T01480112  RH  079%=      5-min Rain = 0
KBO1 241027Z 19016KT 15/11 A2986 RMK A01 T01490112  RH  079%=      5-min Rain = 0
KBO1 241028Z 19016KT 15/11 A2987 RMK A01 T01490112  RH  078%=      5-min Rain = 0
KBO1 241029Z 19017KT 15/11 A2986 RMK A01 T01490112  RH  078%=      5-min Rain = 0
KBO1 241030Z 19017G22KT 15/11 A2987 RMK A01 T01490113  RH  079%=      5-min Rain = 0
KBO1 241031Z 20017KT 15/11 A2987 RMK A01 T01490112  RH  078%=      5-min Rain = 0
KBO1 241032Z 20018KT 15/11 A2987 RMK A01 T01500112  RH  078%=      5-min Rain = 0
KBO1 241033Z 20018KT 15/11 A2987 RMK A01 T01500112  RH  078%=      5-min Rain = 0
KBO1 241034Z 20016KT 15/11 A2987 RMK A01 T01510112  RH  078%=      5-min Rain = 0
KBO1 241035Z 19016KT 15/11 A2986 RMK A01 T01510112  RH  078%=      5-min Rain = 0
KBO1 241036Z 19018KT 15/11 A2986 RMK A01 T01500112  RH  078%=      5-min Rain = 0
KBO1 241037Z 20017KT 15/11 A2986 RMK A01 T01500112  RH  078%=      5-min Rain = 0
KBO1 241038Z 20018KT 15/11 A2986 RMK A01 T01500112  RH  078%=      5-min Rain = 0
KBO1 241039Z 20017KT 15/11 A2986 RMK A01 T01500112  RH  078%=      5-min Rain = 0
KBO1 241040Z 20018G23KT 15/11 A2986 RMK A01 T01500112  RH  078%=      5-min Rain = 0
KBO1 241041Z 20018KT 15/11 A2986 RMK A01 T01500112  RH  078%=      5-min Rain = 0
KBO1 241042Z 20018KT 15/11 A2986 RMK A01 T01510112  RH  077%=      5-min Rain = 0
KBO1 241043Z 20018KT 15/11 A2986 RMK A01 T01520112  RH  077%=      5-min Rain = 0
KBO1 241044Z 20018KT 15/11 A2986 RMK A01 T01510111  RH  077%=      5-min Rain = 0
KBO1 241045Z 20018KT 15/11 A2986 RMK A01 T01520112  RH  077%=      5-min Rain = 0
KBO1 241046Z 20018KT 15/11 A2986 RMK A01 T01520111  RH  077%=      5-min Rain = 0
KBO1 241047Z 20019KT 15/11 A2986 RMK A01 T01520111  RH  077%=      5-min Rain = 0
KBO1 241048Z 20018KT 15/11 A2986 RMK A01 T01520111  RH  077%=      5-min Rain = 0
KBO1 241049Z 20018KT 15/11 A2986 RMK A01 T01530111  RH  076%=      5-min Rain = 0
KBO1 241050Z 20018KT 15/11 A2986 RMK A01 T01520111  RH  076%=      5-min Rain = 0
KBO1 241051Z 20018G24KT 15/11 A2986 RMK A01 T01520111  RH  076%=      5-min Rain = 0
KBO1 241052Z 20016KT 15/11 A2986 RMK A01 T01520111  RH  076%=      5-min Rain = 0
KBO1 241053Z 20019KT 15/11 A2986 RMK A01 T01520111  RH  076%=      5-min Rain = 0
KBO1 241054Z 20018KT 15/11 A2986 RMK A01 T01520110  RH  076%=      5-min Rain = 0
KBO1 241055Z 20018KT 15/11 A2986 RMK A01 T01530110  RH  076%=      5-min Rain = 0
KBO1 241056Z 20018KT 15/11 A2986 RMK A01 T01530110  RH  076%=      5-min Rain = 0
KBO1 241057Z 20018KT 15/11 A2986 RMK A01 T01530111  RH  076%=      5-min Rain = 0
KBO1 241058Z 20017KT 15/11 A2986 RMK A01 T01530110  RH  076%=      5-min Rain = 0
KBO1 241059Z 20018KT 15/11 A2986 RMK A01 T01530110  RH  076%=      5-min Rain = 0
KBO1 241100Z 20019KT 15/11 A2986 RMK A01 T01530111  RH  076%=      5-min Rain = 0
KBO1 241101Z 20019KT 15/11 A2986 RMK A01 T01530111  RH  076%=      5-min Rain = 0
KBO1 241102Z 20020KT 15/11 A2986 RMK A01 T01530110  RH  076%=      5-min Rain = 0
KBO1 241103Z 20019KT 15/11 A2986 RMK A01 T01540110  RH  075%=      5-min Rain = 0
KBO1 241104Z 20018KT 15/11 A2986 RMK A01 T01530110  RH  075%=      5-min Rain = 0
KBO1 241105Z 20019KT 15/11 A2986 RMK A01 T01540110  RH  075%=      5-min Rain = 0
KBO1 241106Z 20020KT 15/11 A2986 RMK A01 T01540111  RH  075%=      5-min Rain = 0
KBO1 241107Z 20018KT 15/11 A2986 RMK A01 T01540111  RH  075%=      5-min Rain = 0
KBO1 241108Z 20019KT 16/11 A2986 RMK A01 T01550110  RH  075%=      5-min Rain = 0
KBO1 241109Z 20022KT 15/11 A2986 RMK A01 T01540110  RH  075%=      5-min Rain = 0
KBO1 241110Z 20020KT 16/11 A2986 RMK A01 T01550110  RH  075%=      5-min Rain = 0
KBO1 241111Z 20019KT 16/11 A2986 RMK A01 T01550110  RH  074%=      5-min Rain = 0
KBO1 241112Z 20018KT 16/11 A2987 RMK A01 T01550110  RH  075%=      5-min Rain = 0
KBO1 241113Z 20018KT 16/11 A2987 RMK A01 T01550111  RH  075%=      5-min Rain = 0
KBO1 241114Z 20018KT 15/11 A2987 RMK A01 T01540110  RH  075%=      5-min Rain = 0
KBO1 241115Z 20018KT 15/11 A2987 RMK A01 T01540110  RH  075%=      5-min Rain = 0
KBO1 241116Z 20020KT 15/11 A2987 RMK A01 T01530110  RH  075%=      5-min Rain = 0
KBO1 241117Z 20019KT 15/11 A2987 RMK A01 T01540110  RH  075%=      5-min Rain = 0
KBO1 241118Z 20019KT 15/11 A2987 RMK A01 T01540110  RH  075%=      5-min Rain = 0
KBO1 241119Z 20020KT 15/11 A2987 RMK A01 T01540110  RH  075%=      5-min Rain = 0
KBO1 241120Z 20018KT 16/11 A2987 RMK A01 T01550110  RH  075%=      5-min Rain = 0
KBO1 241121Z 20018KT 15/11 A2987 RMK A01 T01540110  RH  075%=      5-min Rain = 0
KBO1 241122Z 20020KT 15/11 A2987 RMK A01 T01540111  RH  075%=      5-min Rain = 0
KBO1 241123Z 20019KT 15/11 A2987 RMK A01 T01540111  RH  075%=      5-min Rain = 0
KBO1 241124Z 20019KT 16/11 A2987 RMK A01 T01550111  RH  075%=      5-min Rain = 0
KBO1 241125Z 20020KT 16/11 A2987 RMK A01 T01550111  RH  075%=      5-min Rain = 0
KBO1 241126Z 20023G28KT 16/11 A2987 RMK A01 T01550111  RH  075%=      5-min Rain = 0
KBO1 241127Z 20021KT 16/11 A2987 RMK A01 T01560111  RH  074%=      5-min Rain = 0
KBO1 241128Z 20021KT 16/11 A2987 RMK A01 T01560111  RH  074%=      5-min Rain = 0
KBO1 241129Z 20022KT 16/11 A2987 RMK A01 T01560111  RH  074%=      5-min Rain = 0
KBO1 241130Z 20020KT 16/11 A2987 RMK A01 T01560111  RH  074%=      5-min Rain = 0
KBO1 241131Z 20023KT 16/11 A2987 RMK A01 T01560111  RH  074%=      5-min Rain = 0
KBO1 241132Z 20022KT 16/11 A2987 RMK A01 T01570112  RH  074%=      5-min Rain = 0
KBO1 241133Z 21018KT 16/11 A2987 RMK A01 T01580112  RH  074%=      5-min Rain = 0
KBO1 241134Z 21016G21KT 16/11 A2987 RMK A01 T01580112  RH  074%=      5-min Rain = 0
KBO1 241135Z 21016KT 16/11 A2987 RMK A01 T01570111  RH  074%=      5-min Rain = 0
KBO1 241136Z 21017KT 16/11 A2987 RMK A01 T01560111  RH  075%=      5-min Rain = 0
KBO1 241137Z 21018G23KT 16/11 A2987 RMK A01 T01550111  RH  075%=      5-min Rain = 0
KBO1 241138Z 20019G24KT 16/11 A2987 RMK A01 T01550111  RH  075%=      5-min Rain = 0
KBO1 241139Z 20021KT 16/11 A2987 RMK A01 T01550111  RH  075%=      5-min Rain = 0
KBO1 241140Z 20020KT 16/11 A2987 RMK A01 T01550111  RH  075%=      5-min Rain = 0
KBO1 241141Z 20019G24KT 16/11 A2987 RMK A01 T01550111  RH  075%=      5-min Rain = 0
KBO1 241142Z 20018KT 15/11 A2987 RMK A01 T01540111  RH  075%=      5-min Rain = 0
KBO1 241143Z 20017KT 15/11 A2987 RMK A01 T01540111  RH  076%=      5-min Rain = 0
KBO1 241144Z 20017KT 15/11 A2987 RMK A01 T01530111  RH  076%=      5-min Rain = 0
KBO1 241145Z 20016KT 15/11 A2987 RMK A01 T01530111  RH  076%=      5-min Rain = 0
KBO1 241146Z 20021KT 15/11 A2987 RMK A01 T01520111  RH  077%=      5-min Rain = 0
KBO1 241147Z 20018KT 15/11 A2988 RMK A01 T01520111  RH  077%=      5-min Rain = 0
KBO1 241148Z 20018KT 15/11 A2988 RMK A01 T01520111  RH  076%=      5-min Rain = 0
KBO1 241149Z 20019KT 15/11 A2988 RMK A01 T01520111  RH  077%=      5-min Rain = 0
KBO1 241150Z 20017KT 15/11 A2988 RMK A01 T01520111  RH  076%=      5-min Rain = 0
KBO1 241151Z 20016KT 15/11 A2988 RMK A01 T01520111  RH  076%=      5-min Rain = 0
KBO1 241152Z 20016KT 15/11 A2988 RMK A01 T01510111  RH  077%=      5-min Rain = 0
KBO1 241153Z 21017KT 15/11 A2988 RMK A01 T01510111  RH  077%=      5-min Rain = 0
KBO1 241154Z 20018KT 15/11 A2988 RMK A01 T01500111  RH  077%=      5-min Rain = 0
KBO1 241155Z 20018KT 15/11 A2988 RMK A01 T01510111  RH  077%=      5-min Rain = 0
KBO1 241156Z 20017KT 15/11 A2988 RMK A01 T01510111  RH  077%=      5-min Rain = 0
KBO1 241157Z 20017KT 15/11 A2988 RMK A01 T01510111  RH  077%=      5-min Rain = 0
KBO1 241158Z 20017KT 15/11 A2988 RMK A01 T01510112  RH  077%=      5-min Rain = 0
KBO1 241159Z 20018KT 15/11 A2988 RMK A01 T01500111  RH  077%=      5-min Rain = 0
KBO1 241200Z 20018KT 15/11 A2988 RMK A01 T01510111  RH  077%=      5-min Rain = 0
KBO1 241201Z 21017KT 15/11 A2988 RMK A01 T01510112  RH  077%=      5-min Rain = 0
KBO1 241202Z 21015KT 15/11 A2989 RMK A01 T01520111  RH  077%=      5-min Rain = 0
KBO1 241203Z 21013KT 15/11 A2989 RMK A01 T01520111  RH  077%=      5-min Rain = 0
KBO1 241204Z 21013KT 15/11 A2989 RMK A01 T01510111  RH  077%=      5-min Rain = 0
KBO1 241205Z 20014G19KT 15/11 A2988 RMK A01 T01510111  RH  077%=      5-min Rain = 0
KBO1 241206Z 20014KT 15/11 A2988 RMK A01 T01510111  RH  077%=      5-min Rain = 0
KBO1 241207Z 20016KT 15/11 A2988 RMK A01 T01500111  RH  077%=      5-min Rain = 0
KBO1 241208Z 20016KT 15/11 A2988 RMK A01 T01500111  RH  077%=      5-min Rain = 0
KBO1 241209Z 20016KT 15/11 A2988 RMK A01 T01510111  RH  077%=      5-min Rain = 0
KBO1 241210Z 20017KT 15/11 A2988 RMK A01 T01510111  RH  077%=      5-min Rain = 0
KBO1 241211Z 20015KT 15/11 A2988 RMK A01 T01510111  RH  077%=      5-min Rain = 0
KBO1 241212Z 20016G21KT 15/11 A2988 RMK A01 T01510111  RH  077%=      5-min Rain = 0
KBO1 241213Z 20016KT 15/11 A2989 RMK A01 T01510111  RH  077%=      5-min Rain = 0
KBO1 241214Z 20015KT 15/11 A2989 RMK A01 T01520111  RH  077%=      5-min Rain = 0
KBO1 241215Z 20013KT 15/11 A2989 RMK A01 T01510111  RH  077%=      5-min Rain = 0
KBO1 241216Z 20015KT 15/11 A2989 RMK A01 T01510111  RH  077%=      5-min Rain = 0
KBO1 241217Z 20015KT 15/11 A2989 RMK A01 T01510111  RH  077%=      5-min Rain = 0
KBO1 241218Z 20015KT 15/11 A2989 RMK A01 T01510111  RH  077%=      5-min Rain = 0
KBO1 241219Z 20016KT 15/11 A2989 RMK A01 T01510111  RH  077%=      5-min Rain = 0
KBO1 241220Z 20015KT 15/11 A2989 RMK A01 T01510111  RH  077%=      5-min Rain = 0
KBO1 241221Z 20015KT 15/11 A2989 RMK A01 T01520111  RH  077%=      5-min Rain = 0
KBO1 241222Z 20016KT 15/11 A2989 RMK A01 T01520111  RH  076%=      5-min Rain = 0
KBO1 241223Z 20017G22KT 15/11 A2989 RMK A01 T01530111  RH  076%=      5-min Rain = 0
KBO1 241224Z 20015KT 15/11 A2989 RMK A01 T01530111  RH  076%=      5-min Rain = 0
KBO1 241225Z 20015KT 15/11 A2989 RMK A01 T01540112  RH  076%=      5-min Rain = 0
KBO1 241226Z 20016KT 15/11 A2989 RMK A01 T01540111  RH  076%=      5-min Rain = 0
KBO1 241227Z 20015KT 15/11 A2989 RMK A01 T01540112  RH  076%=      5-min Rain = 0
KBO1 241228Z 20015KT 15/11 A2989 RMK A01 T01540112  RH  076%=      5-min Rain = 0
KBO1 241229Z 20015KT 15/11 A2989 RMK A01 T01540111  RH  075%=      5-min Rain = 0
KBO1 241230Z 20014KT 16/11 A2989 RMK A01 T01550111  RH  075%=      5-min Rain = 0
KBO1 241231Z 20015KT 16/11 A2989 RMK A01 T01550111  RH  075%=      5-min Rain = 0
KBO1 241232Z 20014KT 16/11 A2989 RMK A01 T01550112  RH  075%=      5-min Rain = 0
KBO1 241233Z 19014KT 16/11 A2989 RMK A01 T01550112  RH  075%=      5-min Rain = 0
KBO1 241234Z 20013KT 16/11 A2989 RMK A01 T01550112  RH  075%=      5-min Rain = 0
KBO1 241235Z 19013KT 16/11 A2989 RMK A01 T01550112  RH  075%=      5-min Rain = 0
KBO1 241236Z 19014G19KT 16/11 A2989 RMK A01 T01560112  RH  075%=      5-min Rain = 0
KBO1 241237Z 19016KT 16/11 A2989 RMK A01 T01560111  RH  075%=      5-min Rain = 0
KBO1 241238Z 19015KT 16/11 A2989 RMK A01 T01560111  RH  075%=      5-min Rain = 0
KBO1 241239Z 20016KT 16/11 A2989 RMK A01 T01560111  RH  075%=      5-min Rain = 0
KBO1 241240Z 19016KT 16/11 A2989 RMK A01 T01560111  RH  074%=      5-min Rain = 0
KBO1 241241Z 20017KT 16/11 A2989 RMK A01 T01570111  RH  074%=      5-min Rain = 0
KBO1 241242Z 20015KT 16/11 A2989 RMK A01 T01570112  RH  074%=      5-min Rain = 0
KBO1 241243Z 20014KT 16/11 A2989 RMK A01 T01580112  RH  074%=      5-min Rain = 0
KBO1 241244Z 19015KT 16/11 A2989 RMK A01 T01580112  RH  074%=      5-min Rain = 0
KBO1 241245Z 19014KT 16/11 A2989 RMK A01 T01580112  RH  074%=      5-min Rain = 0
KBO1 241246Z 20016KT 16/11 A2989 RMK A01 T01580112  RH  074%=      5-min Rain = 0
KBO1 241247Z 20016KT 16/11 A2989 RMK A01 T01580111  RH  074%=      5-min Rain = 0
KBO1 241248Z 20015KT 16/11 A2989 RMK A01 T01590112  RH  074%=      5-min Rain = 0
KBO1 241249Z 19016KT 16/11 A2989 RMK A01 T01590112  RH  074%=      5-min Rain = 0
KBO1 241250Z 20015KT 16/11 A2989 RMK A01 T01590112  RH  073%=      5-min Rain = 0
KBO1 241251Z 20015KT 16/11 A2989 RMK A01 T01590112  RH  073%=      5-min Rain = 0
KBO1 241252Z 20017KT 16/11 A2989 RMK A01 T01600112  RH  073%=      5-min Rain = 0
KBO1 241253Z 20017KT 16/11 A2989 RMK A01 T01600111  RH  073%=      5-min Rain = 0
KBO1 241254Z 20018KT 16/11 A2989 RMK A01 T01600111  RH  073%=      5-min Rain = 0
KBO1 241255Z 20018KT 16/11 A2989 RMK A01 T01610112  RH  073%=      5-min Rain = 0
KBO1 241256Z 20015KT 16/11 A2989 RMK A01 T01610111  RH  073%=      5-min Rain = 0
KBO1 241257Z 20015KT 16/11 A2989 RMK A01 T01610112  RH  073%=      5-min Rain = 0
KBO1 241258Z 20015KT 16/11 A2989 RMK A01 T01620112  RH  072%=      5-min Rain = 0
KBO1 241259Z 20017KT 16/11 A2989 RMK A01 T01620112  RH  072%=      5-min Rain = 0
KBO1 241300Z 20016KT 16/11 A2989 RMK A01 T01630112  RH  072%=      5-min Rain = 0
KBO1 241301Z 20017KT 16/11 A2989 RMK A01 T01620112  RH  072%=      5-min Rain = 0
KBO1 241302Z 20017KT 16/11 A2989 RMK A01 T01630112  RH  072%=      5-min Rain = 0
KBO1 241303Z 20017KT 16/11 A2989 RMK A01 T01630112  RH  072%=      5-min Rain = 0
KBO1 241304Z 20015KT 16/11 A2989 RMK A01 T01640112  RH  071%=      5-min Rain = 0
KBO1 241305Z 20016KT 16/11 A2989 RMK A01 T01640112  RH  071%=      5-min Rain = 0
KBO1 241306Z 20015KT 17/11 A2989 RMK A01 T01650112  RH  071%=      5-min Rain = 0
KBO1 241307Z 20016G21KT 17/11 A2989 RMK A01 T01660113  RH  071%=      5-min Rain = 0
KBO1 241308Z 20018KT 17/11 A2989 RMK A01 T01670112  RH  070%=      5-min Rain = 0
KBO1 241309Z 20016KT 17/11 A2989 RMK A01 T01670113  RH  070%=      5-min Rain = 0
KBO1 241310Z 20015KT 17/11 A2989 RMK A01 T01670113  RH  070%=      5-min Rain = 0
KBO1 241311Z 21015KT 17/11 A2989 RMK A01 T01680113  RH  070%=      5-min Rain = 0
KBO1 241312Z 20016KT 17/11 A2989 RMK A01 T01690113  RH  070%=      5-min Rain = 0
KBO1 241313Z 21017KT 17/11 A2989 RMK A01 T01700113  RH  069%=      5-min Rain = 0
KBO1 241314Z 20016KT 17/11 A2989 RMK A01 T01700112  RH  069%=      5-min Rain = 0
KBO1 241315Z 20015KT 17/11 A2989 RMK A01 T01700113  RH  069%=      5-min Rain = 0
KBO1 241316Z 20017KT 17/11 A2989 RMK A01 T01710113  RH  069%=      5-min Rain = 0
KBO1 241317Z 20018KT 17/11 A2989 RMK A01 T01710113  RH  068%=      5-min Rain = 0
KBO1 241318Z 20020KT 17/11 A2989 RMK A01 T01710112  RH  068%=      5-min Rain = 0
KBO1 241319Z 21019KT 17/11 A2989 RMK A01 T01720112  RH  068%=      5-min Rain = 0
KBO1 241320Z 21022KT 17/11 A2989 RMK A01 T01720112  RH  068%=      5-min Rain = 0
KBO1 241321Z 21020G25KT 17/11 A2989 RMK A01 T01720112  RH  068%=      5-min Rain = 0
KBO1 241322Z 20016KT 17/11 A2989 RMK A01 T01720113  RH  068%=      5-min Rain = 0
KBO1 241323Z 20018KT 17/11 A2989 RMK A01 T01740113  RH  068%=      5-min Rain = 0
KBO1 241324Z 21020KT 18/11 A2989 RMK A01 T01750113  RH  067%=      5-min Rain = 0
KBO1 241325Z 20017KT 18/11 A2989 RMK A01 T01750113  RH  067%=      5-min Rain = 0
KBO1 241326Z 20016KT 18/11 A2989 RMK A01 T01750114  RH  067%=      5-min Rain = 0
KBO1 241327Z 20017G22KT 18/11 A2989 RMK A01 T01770114  RH  067%=      5-min Rain = 0
KBO1 241328Z 21020KT 18/11 A2989 RMK A01 T01770113  RH  066%=      5-min Rain = 0
KBO1 241329Z 21020KT 18/11 A2989 RMK A01 T01770113  RH  066%=      5-min Rain = 0
KBO1 241330Z 21019KT 18/11 A2989 RMK A01 T01770112  RH  066%=      5-min Rain = 0
KBO1 241331Z 21019KT 18/11 A2989 RMK A01 T01770112  RH  066%=      5-min Rain = 0
KBO1 241332Z 21019KT 18/11 A2989 RMK A01 T01770113  RH  066%=      5-min Rain = 0
KBO1 241333Z 20016KT 18/11 A2989 RMK A01 T01780113  RH  066%=      5-min Rain = 0
KBO1 241334Z 21017KT 18/11 A2989 RMK A01 T01790114  RH  065%=      5-min Rain = 0
KBO1 241335Z 21017KT 18/11 A2989 RMK A01 T01800113  RH  065%=      5-min Rain = 0
KBO1 241336Z 21017KT 18/11 A2989 RMK A01 T01800113  RH  065%=      5-min Rain = 0
KBO1 241337Z 21016KT 18/11 A2989 RMK A01 T01810114  RH  065%=      5-min Rain = 0
KBO1 241338Z 21019KT 18/11 A2989 RMK A01 T01820113  RH  064%=      5-min Rain = 0
KBO1 241339Z 21017KT 18/11 A2989 RMK A01 T01830113  RH  064%=      5-min Rain = 0
KBO1 241340Z 21019KT 18/11 A2989 RMK A01 T01820113  RH  064%=      5-min Rain = 0
KBO1 241341Z 21018KT 18/11 A2989 RMK A01 T01820112  RH  064%=      5-min Rain = 0
KBO1 241342Z 21015G20KT 18/11 A2989 RMK A01 T01830112  RH  063%=      5-min Rain = 0
KBO1 241343Z 21018KT 19/11 A2989 RMK A01 T01850114  RH  063%=      5-min Rain = 0
KBO1 241344Z 21016KT 19/11 A2989 RMK A01 T01860113  RH  062%=      5-min Rain = 0
KBO1 241345Z 21015KT 19/11 A2989 RMK A01 T01870113  RH  062%=      5-min Rain = 0
KBO1 241346Z 21018KT 19/11 A2989 RMK A01 T01880113  RH  062%=      5-min Rain = 0
KBO1 241347Z 21019KT 19/11 A2989 RMK A01 T01890112  RH  061%=      5-min Rain = 0
KBO1 241348Z 21018KT 19/11 A2989 RMK A01 T01890111  RH  060%=      5-min Rain = 0
KBO1 241349Z 21019KT 19/11 A2989 RMK A01 T01890111  RH  060%=      5-min Rain = 0
KBO1 241350Z 21018G24KT 19/11 A2989 RMK A01 T01890111  RH  060%=      5-min Rain = 0
KBO1 241351Z 22019KT 19/11 A2989 RMK A01 T01890109  RH  060%=      5-min Rain = 0
KBO1 241352Z 21020KT 19/11 A2989 RMK A01 T01900110  RH  060%=      5-min Rain = 0
KBO1 241353Z 22017KT 19/11 A2989 RMK A01 T01910109  RH  059%=      5-min Rain = 0
KBO1 241354Z 22017KT 19/11 A2989 RMK A01 T01910109  RH  059%=      5-min Rain = 0
KBO1 241355Z 22018KT 19/11 A2989 RMK A01 T01930109  RH  058%=      5-min Rain = 0
KBO1 241356Z 22018KT 19/11 A2989 RMK A01 T01940108  RH  058%=      5-min Rain = 0
KBO1 241357Z 22014KT 19/11 A2989 RMK A01 T01940109  RH  058%=      5-min Rain = 0
KBO1 241358Z 22018KT 20/11 A2989 RMK A01 T01960109  RH  057%=      5-min Rain = 0
KBO1 241359Z 22017KT 20/11 A2989 RMK A01 T01970109  RH  057%=      5-min Rain = 0
KBO1 241400Z 22018KT 20/11 A2989 RMK A01 T01970109  RH  057%=      5-min Rain = 0
KBO1 241401Z 22019KT 20/11 A2989 RMK A01 T01960108  RH  057%=      5-min Rain = 0
KBO1 241402Z 22020KT 20/11 A2989 RMK A01 T01950106  RH  056%=      5-min Rain = 0
KBO1 241403Z 22019KT 20/11 A2989 RMK A01 T01950105  RH  056%=      5-min Rain = 0
KBO1 241404Z 22017KT 20/11 A2989 RMK A01 T01950106  RH  057%=      5-min Rain = 0
KBO1 241405Z 22015KT 20/11 A299 RMK A01 T01950107  RH  057%=      5-min Rain = 0
KBO1 241406Z 22014KT 20/11 A299 RMK A01 T01980109  RH  056%=      5-min Rain = 0
KBO1 241407Z 23017KT 20/11 A299 RMK A01 T02000107  RH  055%=      5-min Rain = 0
KBO1 241408Z 22016KT 20/11 A299 RMK A01 T02000106  RH  055%=      5-min Rain = 0
KBO1 241409Z 23017KT 20/11 A299 RMK A01 T02010106  RH  055%=      5-min Rain = 0
KBO1 241410Z 22016KT 20/11 A299 RMK A01 T02000106  RH  055%=      5-min Rain = 0
KBO1 241411Z 22016KT 20/11 A299 RMK A01 T02000105  RH  054%=      5-min Rain = 0
KBO1 241412Z 23016KT 20/11 A299 RMK A01 T02000105  RH  054%=      5-min Rain = 0
KBO1 241413Z 23014KT 20/11 A299 RMK A01 T02010105  RH  054%=      5-min Rain = 0
KBO1 241414Z 23012KT 20/11 A2991 RMK A01 T02020106  RH  054%=      5-min Rain = 0
KBO1 241415Z 24013KT 20/11 A2991 RMK A01 T02040107  RH  054%=      5-min Rain = 0
KBO1 241416Z 25014KT 21/10 A2991 RMK A01 T02050104  RH  052%=      5-min Rain = 0
KBO1 241417Z 25014KT 21/10 A2991 RMK A01 T02050104  RH  052%=      5-min Rain = 0
KBO1 241418Z 25013KT 21/10 A2991 RMK A01 T02070103  RH  051%=      5-min Rain = 0
KBO1 241419Z 25012KT 21/11 A2991 RMK A01 T02080105  RH  052%=      5-min Rain = 0
KBO1 241420Z 25012KT 21/10 A2991 RMK A01 T02080104  RH  051%=      5-min Rain = 0
KBO1 241421Z 24013KT 21/11 A2991 RMK A01 T02100106  RH  051%=      5-min Rain = 0
KBO1 241422Z 24016KT 21/10 A2991 RMK A01 T02110103  RH  050%=      5-min Rain = 0
KBO1 241423Z 25014KT 21/10 A2991 RMK A01 T02110103  RH  050%=      5-min Rain = 0
KBO1 241424Z 24015KT 21/10 A2991 RMK A01 T02110100  RH  049%=      5-min Rain = 0
KBO1 241425Z 24014KT 21/10 A2991 RMK A01 T02100100  RH  049%=      5-min Rain = 0
KBO1 241426Z 25015KT 21/10 A2991 RMK A01 T02100097  RH  049%=      5-min Rain = 0
KBO1 241427Z 25015KT 21/09 A2991 RMK A01 T02090094  RH  048%=      5-min Rain = 0
KBO1 241428Z 26012KT 21/10 A2991 RMK A01 T02110097  RH  048%=      5-min Rain = 0
KBO1 241429Z 25012KT 21/10 A2991 RMK A01 T02120096  RH  048%=      5-min Rain = 0
KBO1 241430Z 25013KT 21/10 A2991 RMK A01 T02110098  RH  048%=      5-min Rain = 0
KBO1 241431Z 26015KT 21/09 A2991 RMK A01 T02100094  RH  047%=      5-min Rain = 0
KBO1 241432Z 26013KT 21/09 A2991 RMK A01 T02090093  RH  047%=      5-min Rain = 0
KBO1 241433Z 26014KT 21/10 A2991 RMK A01 T02090095  RH  048%=      5-min Rain = 0
KBO1 241434Z 25013KT 21/10 A2991 RMK A01 T02110095  RH  047%=      5-min Rain = 0
KBO1 241435Z 25013KT 21/10 A2991 RMK A01 T02120096  RH  047%=      5-min Rain = 0
KBO1 241436Z 25010KT 21/10 A2991 RMK A01 T02120097  RH  048%=      5-min Rain = 0
KBO1 241437Z 25011KT 21/10 A2991 RMK A01 T02130098  RH  048%=      5-min Rain = 0
KBO1 241438Z 26011KT 21/10 A2991 RMK A01 T02140099  RH  048%=      5-min Rain = 0
KBO1 241439Z 26013KT 22/10 A2991 RMK A01 T02170097  RH  046%=      5-min Rain = 0
KBO1 241440Z 26012G17KT 22/09 A2991 RMK A01 T02170092  RH  045%=      5-min Rain = 0
KBO1 241441Z 27014KT 22/09 A2991 RMK A01 T02160091  RH  045%=      5-min Rain = 0
KBO1 241442Z 26013KT 22/09 A2991 RMK A01 T02160088  RH  044%=      5-min Rain = 0
KBO1 241443Z 26013KT 22/09 A2991 RMK A01 T02150087  RH  044%=      5-min Rain = 0
KBO1 241444Z 27013KT 21/09 A2991 RMK A01 T02140086  RH  044%=      5-min Rain = 0
KBO1 241445Z 26012KT 21/09 A2991 RMK A01 T02130085  RH  044%=      5-min Rain = 0
KBO1 241446Z 26012KT 21/09 A2991 RMK A01 T02140086  RH  044%=      5-min Rain = 0
KBO1 241447Z 27011KT 22/08 A2991 RMK A01 T02150084  RH  043%=      5-min Rain = 0
KBO1 241448Z 26012KT 22/08 A2991 RMK A01 T02160082  RH  042%=      5-min Rain = 0
KBO1 241449Z 26012KT 22/08 A2991 RMK A01 T02160083  RH  042%=      5-min Rain = 0
KBO1 241450Z 28014KT 22/08 A2991 RMK A01 T02160082  RH  042%=      5-min Rain = 0
KBO1 241451Z 29013G18KT 22/09 A2991 RMK A01 T02160085  RH  043%=      5-min Rain = 0
KBO1 241452Z 28012KT 22/08 A2991 RMK A01 T02160081  RH  042%=      5-min Rain = 0
KBO1 241453Z 27013G18KT 22/08 A2991 RMK A01 T02170077  RH  041%=      5-min Rain = 0
KBO1 241454Z 28013KT 22/08 A2991 RMK A01 T02180076  RH  040%=      5-min Rain = 0
KBO1 241455Z 28011KT 22/08 A2991 RMK A01 T02180080  RH  041%=      5-min Rain = 0
KBO1 241456Z 27014KT 22/08 A2991 RMK A01 T02180077  RH  040%=      5-min Rain = 0
KBO1 241457Z 27012KT 22/08 A2991 RMK A01 T02180077  RH  040%=      5-min Rain = 0
KBO1 241458Z 27012KT 22/08 A2991 RMK A01 T02190080  RH  041%=      5-min Rain = 0
KBO1 241459Z 26011KT 22/08 A2991 RMK A01 T02190077  RH  040%=      5-min Rain = 0
KBO1 241500Z 26012KT 22/07 A2991 RMK A01 T02200074  RH  039%=      5-min Rain = 0
KBO1 241501Z 28014KT 22/07 A2991 RMK A01 T02210073  RH  039%=      5-min Rain = 0
KBO1 241502Z 27013KT 22/07 A2991 RMK A01 T02210066  RH  037%=      5-min Rain = 0
KBO1 241503Z 27013KT 22/07 A2991 RMK A01 T02220066  RH  037%=      5-min Rain = 0
KBO1 241504Z 29012KT 22/07 A2991 RMK A01 T02240072  RH  037%=      5-min Rain = 0
KBO1 241505Z 30013KT 23/08 A2991 RMK A01 T02270077  RH  038%=      5-min Rain = 0
KBO1 241506Z 28014KT 23/08 A2991 RMK A01 T02260076  RH  038%=      5-min Rain = 0
KBO1 241507Z 28015KT 23/07 A2991 RMK A01 T02250074  RH  038%=      5-min Rain = 0
KBO1 241508Z 28013KT 22/07 A2991 RMK A01 T02240073  RH  038%=      5-min Rain = 0
KBO1 241509Z 28011KT 22/08 A2991 RMK A01 T02220076  RH  039%=      5-min Rain = 0
KBO1 241510Z 29011KT 22/08 A2991 RMK A01 T02220077  RH  039%=      5-min Rain = 0
KBO1 241511Z 28012KT 22/08 A299 RMK A01 T02220079  RH  040%=      5-min Rain = 0
KBO1 241512Z 28013KT 22/08 A299 RMK A01 T02240081  RH  040%=      5-min Rain = 0
KBO1 241513Z 28011KT 23/08 A2991 RMK A01 T02260081  RH  040%=      5-min Rain = 0
KBO1 241514Z 29012KT 23/08 A299 RMK A01 T02260079  RH  039%=      5-min Rain = 0
KBO1 241515Z 29012KT 23/08 A2991 RMK A01 T02260077  RH  038%=      5-min Rain = 0
KBO1 241516Z 29013KT 23/07 A2991 RMK A01 T02260074  RH  037%=      5-min Rain = 0
KBO1 241517Z 30011KT 22/07 A2991 RMK A01 T02240070  RH  037%=      5-min Rain = 0
KBO1 241518Z 29015KT 22/06 A2991 RMK A01 T02230061  RH  035%=      5-min Rain = 0
KBO1 241519Z 30013KT 22/06 A2991 RMK A01 T02210058  RH  035%=      5-min Rain = 0
KBO1 241520Z 30012KT 22/06 A2991 RMK A01 T02190055  RH  034%=      5-min Rain = 0
KBO1 241521Z 31015KT 22/05 A2991 RMK A01 T02190054  RH  034%=      5-min Rain = 0
KBO1 241522Z 31015KT 22/06 A2991 RMK A01 T02190055  RH  034%=      5-min Rain = 0
KBO1 241523Z 30012KT 22/06 A2991 RMK A01 T02190057  RH  035%=      5-min Rain = 0
KBO1 241524Z 30013KT 22/06 A2991 RMK A01 T02200058  RH  035%=      5-min Rain = 0
KBO1 241525Z 30013KT 22/06 A2991 RMK A01 T02200056  RH  034%=      5-min Rain = 0
KBO1 241526Z 30013KT 22/06 A2991 RMK A01 T02190057  RH  035%=      5-min Rain = 0
KBO1 241527Z 31013KT 22/06 A2991 RMK A01 T02180055  RH  035%=      5-min Rain = 0
KBO1 241528Z 31016KT 22/05 A2991 RMK A01 T02190052  RH  034%=      5-min Rain = 0
KBO1 241529Z 31013KT 22/05 A2991 RMK A01 T02190052  RH  034%=      5-min Rain = 0
KBO1 241530Z 31011KT 22/05 A2991 RMK A01 T02180050  RH  034%=      5-min Rain = 0
KBO1 241531Z 31009KT 22/05 A2991 RMK A01 T02170050  RH  034%=      5-min Rain = 0
KBO1 241532Z 31010KT 22/05 A2991 RMK A01 T02170050  RH  034%=      5-min Rain = 0
KBO1 241533Z 29009KT 22/06 A2991 RMK A01 T02190055  RH  035%=      5-min Rain = 0
KBO1 241534Z 29009KT 22/06 A2991 RMK A01 T02200057  RH  035%=      5-min Rain = 0
KBO1 241535Z 31010KT 22/06 A2991 RMK A01 T02210057  RH  034%=      5-min Rain = 0
KBO1 241536Z 31009KT 22/05 A2991 RMK A01 T02220053  RH  033%=      5-min Rain = 0
KBO1 241537Z 30011KT 22/05 A2991 RMK A01 T02230049  RH  032%=      5-min Rain = 0
KBO1 241538Z 30009KT 22/06 A2991 RMK A01 T02240056  RH  033%=      5-min Rain = 0
KBO1 241539Z 29009KT 23/05 A2991 RMK A01 T02250051  RH  032%=      5-min Rain = 0
KBO1 241540Z 29008KT 22/05 A2991 RMK A01 T02220046  RH  032%=      5-min Rain = 0
KBO1 241541Z 31009KT 22/06 A2991 RMK A01 T02220057  RH  034%=      5-min Rain = 0
KBO1 241542Z 29011KT 22/06 A2991 RMK A01 T02230060  RH  035%=      5-min Rain = 0
KBO1 241543Z 28008KT 22/06 A2991 RMK A01 T02230062  RH  035%=      5-min Rain = 0
KBO1 241544Z 31009KT 22/07 A2991 RMK A01 T02240065  RH  036%=      5-min Rain = 0
KBO1 241545Z 29011KT 23/07 A2991 RMK A01 T02260065  RH  035%=      5-min Rain = 0
KBO1 241546Z 30010KT 22/06 A2991 RMK A01 T02240062  RH  035%=      5-min Rain = 0
KBO1 241547Z 31011KT 22/07 A2991 RMK A01 T02210069  RH  037%=      5-min Rain = 0
KBO1 241548Z 31012KT 22/07 A2991 RMK A01 T02220069  RH  037%=      5-min Rain = 0
KBO1 241549Z 31011KT 22/07 A2991 RMK A01 T02220065  RH  036%=      5-min Rain = 0
KBO1 241550Z 31009KT 22/07 A2991 RMK A01 T02200068  RH  037%=      5-min Rain = 0
KBO1 241551Z 33009KT 22/07 A2991 RMK A01 T02180069  RH  038%=      5-min Rain = 0
KBO1 241552Z 33011KT 22/07 A2991 RMK A01 T02180070  RH  038%=      5-min Rain = 0
KBO1 241553Z 31012KT 22/07 A2991 RMK A01 T02190071  RH  038%=      5-min Rain = 0
KBO1 241554Z 30011KT 22/07 A2991 RMK A01 T02200072  RH  038%=      5-min Rain = 0
KBO1 241555Z 32012KT 22/07 A2991 RMK A01 T02200073  RH  039%=      5-min Rain = 0
KBO1 241556Z 30013KT 22/07 A2991 RMK A01 T02200072  RH  038%=      5-min Rain = 0
KBO1 241557Z 30012KT 22/07 A2991 RMK A01 T02200072  RH  039%=      5-min Rain = 0
KBO1 241558Z 31009KT 22/07 A2991 RMK A01 T02190068  RH  038%=      5-min Rain = 0
KBO1 241559Z 32009KT 22/07 A2991 RMK A01 T02170071  RH  039%=      5-min Rain = 0
KBO1 241600Z 31011KT 22/07 A2991 RMK A01 T02170071  RH  039%=      5-min Rain = 0
KBO1 241601Z 30010KT 22/07 A2991 RMK A01 T02170068  RH  038%=      5-min Rain = 0
KBO1 241602Z 31010KT 22/07 A2991 RMK A01 T02180067  RH  037%=      5-min Rain = 0
KBO1 241603Z 31007KT 22/07 A2991 RMK A01 T02190068  RH  038%=      5-min Rain = 0
KBO1 241604Z 32008KT 22/07 A2991 RMK A01 T02210066  RH  036%=      5-min Rain = 0
KBO1 241605Z 31009KT 22/07 A2991 RMK A01 T02210068  RH  037%=      5-min Rain = 0
KBO1 241606Z 32011KT 22/07 A2991 RMK A01 T02210073  RH  038%=      5-min Rain = 0
KBO1 241607Z 32012KT 22/07 A2991 RMK A01 T02230074  RH  038%=      5-min Rain = 0
KBO1 241608Z 32008G13KT 22/07 A2991 RMK A01 T02230073  RH  038%=      5-min Rain = 0
KBO1 241609Z 32012KT 22/07 A2991 RMK A01 T02230072  RH  038%=      5-min Rain = 0
KBO1 241610Z 31014KT 22/07 A2991 RMK A01 T02230072  RH  038%=      5-min Rain = 0
KBO1 241611Z 31010KT 22/07 A2991 RMK A01 T02220073  RH  038%=      5-min Rain = 0
KBO1 241612Z 30007KT 22/07 A2991 RMK A01 T02210074  RH  039%=      5-min Rain = 0
KBO1 241613Z 31007KT 22/08 A2991 RMK A01 T02220075  RH  039%=      5-min Rain = 0
KBO1 241614Z 30009KT 22/08 A2991 RMK A01 T02230075  RH  039%=      5-min Rain = 0
KBO1 241615Z 32010KT 22/08 A2991 RMK A01 T02210079  RH  040%=      5-min Rain = 0
KBO1 241616Z 31009KT 22/08 A2991 RMK A01 T02210078  RH  040%=      5-min Rain = 0
KBO1 241617Z 31012KT 22/08 A2991 RMK A01 T02240075  RH  038%=      5-min Rain = 0
KBO1 241618Z 31011KT 23/07 A2991 RMK A01 T02260069  RH  036%=      5-min Rain = 0
KBO1 241619Z 30010KT 22/07 A2991 RMK A01 T02240067  RH  036%=      5-min Rain = 0
KBO1 241620Z 30008KT 22/07 A2991 RMK A01 T02230073  RH  038%=      5-min Rain = 0
KBO1 241621Z 32010KT 23/09 A2991 RMK A01 T02250085  RH  041%=      5-min Rain = 0
KBO1 241622Z 32009KT 23/08 A2991 RMK A01 T02280083  RH  040%=      5-min Rain = 0
KBO1 241623Z 32008KT 22/08 A2991 RMK A01 T02240080  RH  040%=      5-min Rain = 0
KBO1 241624Z 32012KT 22/08 A2991 RMK A01 T02210082  RH  041%=      5-min Rain = 0
KBO1 241625Z 32011KT 22/09 A2991 RMK A01 T02210085  RH  042%=      5-min Rain = 0
KBO1 241626Z 32006KT 22/09 A2991 RMK A01 T02190085  RH  042%=      5-min Rain = 0
KBO1 241627Z 33008KT 22/09 A2991 RMK A01 T02200089  RH  043%=      5-min Rain = 0
KBO1 241628Z 33011KT 22/09 A2992 RMK A01 T02230087  RH  042%=      5-min Rain = 0
KBO1 241629Z 31012KT 23/09 A2992 RMK A01 T02260085  RH  041%=      5-min Rain = 0
KBO1 241630Z 31012KT 23/08 A2992 RMK A01 T02270082  RH  039%=      5-min Rain = 0
KBO1 241631Z 32008KT 23/08 A2992 RMK A01 T02260078  RH  038%=      5-min Rain = 0
KBO1 241632Z 32008KT 22/08 A2992 RMK A01 T02240081  RH  040%=      5-min Rain = 0
KBO1 241633Z 33010KT 23/09 A2992 RMK A01 T02250085  RH  041%=      5-min Rain = 0
KBO1 241634Z 33008KT 22/08 A2992 RMK A01 T02240084  RH  041%=      5-min Rain = 0
KBO1 241635Z 32010KT 23/09 A2992 RMK A01 T02260087  RH  041%=      5-min Rain = 0
KBO1 241636Z 30009KT 23/08 A2992 RMK A01 T02270079  RH  038%=      5-min Rain = 0
KBO1 241637Z 30010KT 23/08 A2992 RMK A01 T02260076  RH  038%=      5-min Rain = 0
KBO1 241638Z 29008KT 23/08 A2992 RMK A01 T02250079  RH  039%=      5-min Rain = 0
KBO1 241639Z 32008KT 23/08 A2992 RMK A01 T02250082  RH  040%=      5-min Rain = 0
KBO1 241640Z 31006KT 22/08 A2992 RMK A01 T02240082  RH  040%=      5-min Rain = 0
KBO1 241641Z 32009KT 23/08 A2992 RMK A01 T02250082  RH  040%=      5-min Rain = 0
KBO1 241642Z 33012KT 23/08 A2992 RMK A01 T02270077  RH  038%=      5-min Rain = 0
KBO1 241643Z 31010KT 23/08 A2992 RMK A01 T02300076  RH  037%=      5-min Rain = 0
KBO1 241644Z 30009KT 23/07 A2992 RMK A01 T02330071  RH  035%=      5-min Rain = 0
KBO1 241645Z 31008KT 23/08 A2992 RMK A01 T02310078  RH  037%=      5-min Rain = 0
KBO1 241646Z 31012KT 23/08 A2992 RMK A01 T02330084  RH  039%=      5-min Rain = 0
KBO1 241647Z 33012KT 23/08 A2992 RMK A01 T02320084  RH  039%=      5-min Rain = 0
KBO1 241648Z 33011KT 23/08 A2992 RMK A01 T02310083  RH  039%=      5-min Rain = 0
KBO1 241649Z 32009G14KT 23/09 A2992 RMK A01 T02300086  RH  040%=      5-min Rain = 0
KBO1 241650Z 33007KT 23/09 A2992 RMK A01 T02300085  RH  039%=      5-min Rain = 0
KBO1 241651Z 34008KT 23/09 A2992 RMK A01 T02310085  RH  039%=      5-min Rain = 0
KBO1 241652Z 33010KT 23/08 A2992 RMK A01 T02310081  RH  038%=      5-min Rain = 0
KBO1 241653Z 31009KT 23/08 A2992 RMK A01 T02290079  RH  038%=      5-min Rain = 0
KBO1 241654Z 32009KT 23/08 A2992 RMK A01 T02290080  RH  038%=      5-min Rain = 0
KBO1 241655Z 32013KT 23/09 A2992 RMK A01 T02310085  RH  039%=      5-min Rain = 0
KBO1 241656Z 33011KT 24/09 A2992 RMK A01 T02350086  RH  039%=      5-min Rain = 0
KBO1 241657Z 32011KT 24/08 A2992 RMK A01 T02360082  RH  037%=      5-min Rain = 0
KBO1 241658Z 31011KT 24/07 A2992 RMK A01 T02360074  RH  035%=      5-min Rain = 0
KBO1 241659Z 32008KT 24/07 A2992 RMK A01 T02350071  RH  035%=      5-min Rain = 0
KBO1 241700Z 30007KT 24/07 A2992 RMK A01 T02350069  RH  034%=      5-min Rain = 0
KBO1 241701Z 29005KT 23/07 A2992 RMK A01 T02320070  RH  035%=      5-min Rain = 0
KBO1 241702Z 33009KT 23/08 A2992 RMK A01 T02320079  RH  038%=      5-min Rain = 0
KBO1 241703Z 32010KT 23/07 A2992 RMK A01 T02340074  RH  036%=      5-min Rain = 0
KBO1 241704Z 30013KT 24/08 A2992 RMK A01 T02350075  RH  036%=      5-min Rain = 0
KBO1 241705Z 31012KT 24/07 A2992 RMK A01 T02360071  RH  035%=      5-min Rain = 0
KBO1 241706Z 32008KT 24/07 A2992 RMK A01 T02360069  RH  034%=      5-min Rain = 0
KBO1 241707Z 29009KT 23/07 A2992 RMK A01 T02340067  RH  034%=      5-min Rain = 0
KBO1 241708Z 29007KT 24/06 A2992 RMK A01 T02370064  RH  033%=      5-min Rain = 0
KBO1 241709Z 33008KT 24/07 A2992 RMK A01 T02400072  RH  034%=      5-min Rain = 0
KBO1 241710Z 31007KT 24/07 A2992 RMK A01 T02400071  RH  034%=      5-min Rain = 0
KBO1 241711Z 30008KT 24/08 A2992 RMK A01 T02370075  RH  035%=      5-min Rain = 0
KBO1 241712Z 32012KT 24/07 A2992 RMK A01 T02360074  RH  035%=      5-min Rain = 0
KBO1 241713Z 31008KT 24/07 A2992 RMK A01 T02370070  RH  034%=      5-min Rain = 0
KBO1 241714Z 33011KT 24/07 A2992 RMK A01 T02360071  RH  035%=      5-min Rain = 0
KBO1 241715Z 33010KT 24/07 A2992 RMK A01 T02360071  RH  035%=      5-min Rain = 0
KBO1 241716Z 32008KT 24/07 A2992 RMK A01 T02350072  RH  035%=      5-min Rain = 0
KBO1 241717Z 34009KT 23/07 A2992 RMK A01 T02340073  RH  036%=      5-min Rain = 0
KBO1 241718Z 35011G17KT 24/07 A2992 RMK A01 T02350073  RH  035%=      5-min Rain = 0
KBO1 241719Z 33012KT 24/07 A2992 RMK A01 T02390074  RH  035%=      5-min Rain = 0
KBO1 241720Z 34006KT 24/08 A2992 RMK A01 T02400075  RH  035%=      5-min Rain = 0
KBO1 241721Z 34008KT 24/08 A2992 RMK A01 T02420075  RH  034%=      5-min Rain = 0
KBO1 241722Z 32006KT 24/07 A2992 RMK A01 T02430069  RH  033%=      5-min Rain = 0
KBO1 241723Z 34009KT 24/07 A2992 RMK A01 T02420070  RH  033%=      5-min Rain = 0
KBO1 241724Z 34011KT 24/07 A2992 RMK A01 T02390071  RH  034%=      5-min Rain = 0
KBO1 241725Z 33009KT 24/08 A2992 RMK A01 T02390075  RH  035%=      5-min Rain = 0
KBO1 241726Z 33011KT 24/07 A2992 RMK A01 T02410071  RH  034%=      5-min Rain = 0
KBO1 241727Z 34009KT 24/07 A2992 RMK A01 T02410068  RH  033%=      5-min Rain = 0
KBO1 241728Z 33008KT 24/07 A2992 RMK A01 T02420067  RH  033%=      5-min Rain = 0
KBO1 241729Z 34006KT 24/07 A2992 RMK A01 T02390068  RH  033%=      5-min Rain = 0
KBO1 241730Z 33006KT 24/07 A2992 RMK A01 T02380070  RH  034%=      5-min Rain = 0
KBO1 241731Z 31010KT 24/07 A2992 RMK A01 T02390070  RH  034%=      5-min Rain = 0
KBO1 241732Z 29009KT 24/07 A2992 RMK A01 T02420072  RH  034%=      5-min Rain = 0
KBO1 241733Z 30008KT 24/07 A2992 RMK A01 T02420070  RH  033%=      5-min Rain = 0
KBO1 241734Z 33013KT 24/08 A2992 RMK A01 T02420075  RH  034%=      5-min Rain = 0
KBO1 241735Z 34012KT 25/07 A2993 RMK A01 T02450070  RH  033%=      5-min Rain = 0
KBO1 241736Z 34009KT 24/07 A2993 RMK A01 T02430069  RH  033%=      5-min Rain = 0
KBO1 241737Z 34007KT 24/07 A2993 RMK A01 T02410068  RH  033%=      5-min Rain = 0
KBO1 241738Z 32003KT 24/06 A2992 RMK A01 T02380064  RH  033%=      5-min Rain = 0
KBO1 241739Z 36002KT 24/07 A2992 RMK A01 T02370065  RH  033%=      5-min Rain = 0
KBO1 241740Z 33005G10KT 24/07 A2993 RMK A01 T02400070  RH  034%=      5-min Rain = 0
KBO1 241741Z 31008KT 24/06 A2993 RMK A01 T02430062  RH  031%=      5-min Rain = 0
KBO1 241742Z 31007KT 25/06 A2992 RMK A01 T02460060  RH  030%=      5-min Rain = 0
KBO1 241743Z 32006KT 25/06 A2992 RMK A01 T02460061  RH  030%=      5-min Rain = 0
KBO1 241744Z 32004KT 25/06 A2992 RMK A01 T02470061  RH  030%=      5-min Rain = 0
KBO1 241745Z 29005KT 25/06 A2992 RMK A01 T02460062  RH  031%=      5-min Rain = 0
KBO1 241746Z 29005KT 25/06 A2992 RMK A01 T02460064  RH  031%=      5-min Rain = 0
KBO1 241747Z 28006KT 25/07 A2992 RMK A01 T02460066  RH  032%=      5-min Rain = 0
KBO1 241748Z 29009KT 25/07 A2992 RMK A01 T02480069  RH  032%=      5-min Rain = 0
KBO1 241749Z 29006KT 25/07 A2992 RMK A01 T02510065  RH  030%=      5-min Rain = 0
KBO1 241750Z 29006KT 25/07 A2992 RMK A01 T02510066  RH  031%=      5-min Rain = 0
KBO1 241751Z 30002KT 25/06 A2992 RMK A01 T02500059  RH  029%=      5-min Rain = 0
KBO1 241752Z 34004G9KT 25/06 A2992 RMK A01 T02470058  RH  030%=      5-min Rain = 0
KBO1 241753Z 33008KT 25/07 A2992 RMK A01 T02470068  RH  032%=      5-min Rain = 0
KBO1 241754Z 32007KT 25/07 A2992 RMK A01 T02500067  RH  031%=      5-min Rain = 0
KBO1 241755Z 30009KT 25/07 A2992 RMK A01 T02510068  RH  031%=      5-min Rain = 0
KBO1 241756Z 30010KT 25/07 A2992 RMK A01 T02490068  RH  031%=      5-min Rain = 0
KBO1 241757Z 31007KT 25/07 A2992 RMK A01 T02490068  RH  031%=      5-min Rain = 0
KBO1 241758Z 31008KT 25/07 A2992 RMK A01 T02490066  RH  031%=      5-min Rain = 0
KBO1 241759Z 31008KT 25/06 A2992 RMK A01 T02480064  RH  031%=      5-min Rain = 0
KBO1 241800Z 31009KT 25/07 A2992 RMK A01 T02470068  RH  032%=      5-min Rain = 0
KBO1 241801Z 32008KT 25/06 A2992 RMK A01 T02490062  RH  030%=      5-min Rain = 0
KBO1 241802Z 32008KT 25/06 A2992 RMK A01 T02470063  RH  031%=      5-min Rain = 0
KBO1 241803Z 31006KT 25/06 A2992 RMK A01 T02470062  RH  031%=      5-min Rain = 0
KBO1 241804Z 32004KT 25/06 A2992 RMK A01 T02460064  RH  031%=      5-min Rain = 0
KBO1 241805Z 28003KT 25/06 A2992 RMK A01 T02460060  RH  030%=      5-min Rain = 0
KBO1 241806Z 25002KT 25/06 A2992 RMK A01 T02450057  RH  030%=      5-min Rain = 0
KBO1 241807Z 28002KT 25/06 A2992 RMK A01 T02450059  RH  030%=      5-min Rain = 0
KBO1 241808Z 25001KT 25/06 A2992 RMK A01 T02460059  RH  030%=      5-min Rain = 0
KBO1 241809Z 27005KT 25/06 A2992 RMK A01 T02460062  RH  031%=      5-min Rain = 0
KBO1 241810Z 26007KT 25/06 A2992 RMK A01 T02470060  RH  030%=      5-min Rain = 0
KBO1 241811Z 27006KT 25/06 A2992 RMK A01 T02470059  RH  030%=      5-min Rain = 0
KBO1 241812Z 27004KT 25/06 A2992 RMK A01 T02490057  RH  029%=      5-min Rain = 0
KBO1 241813Z 26005KT 25/06 A2992 RMK A01 T02490062  RH  030%=      5-min Rain = 0
KBO1 241814Z 25005KT 25/06 A2992 RMK A01 T02490060  RH  030%=      5-min Rain = 0
KBO1 241815Z 24003KT 25/06 A2992 RMK A01 T02480058  RH  029%=      5-min Rain = 0
KBO1 241816Z 26003KT 25/06 A2992 RMK A01 T02460058  RH  030%=      5-min Rain = 0
KBO1 241817Z 26003KT 25/06 A2992 RMK A01 T02470058  RH  030%=      5-min Rain = 0
KBO1 241818Z 28004KT 25/06 A2992 RMK A01 T02470062  RH  031%=      5-min Rain = 0
KBO1 241819Z 27005KT 25/06 A2991 RMK A01 T02480061  RH  030%=      5-min Rain = 0
KBO1 241820Z 29004KT 25/06 A2991 RMK A01 T02500060  RH  030%=      5-min Rain = 0
KBO1 241821Z 31005KT 25/07 A2991 RMK A01 T02510066  RH  030%=      5-min Rain = 0
KBO1 241822Z 31005KT 25/07 A2991 RMK A01 T02540065  RH  030%=      5-min Rain = 0
KBO1 241823Z 31004KT 26/06 A2991 RMK A01 T02550062  RH  029%=      5-min Rain = 0
KBO1 241824Z 28002KT 26/06 A2991 RMK A01 T02550063  RH  029%=      5-min Rain = 0
KBO1 241825Z 28004KT 26/06 A2991 RMK A01 T02550064  RH  030%=      5-min Rain = 0
KBO1 241826Z 30009KT 26/06 A2991 RMK A01 T02580064  RH  029%=      5-min Rain = 0
KBO1 241827Z 30007KT 26/06 A2991 RMK A01 T02600059  RH  028%=      5-min Rain = 0
KBO1 241828Z 28004KT 26/06 A2991 RMK A01 T02600059  RH  028%=      5-min Rain = 0
KBO1 241829Z 28005KT 26/06 A2991 RMK A01 T02620064  RH  028%=      5-min Rain = 0
KBO1 241830Z 29007KT 27/06 A2991 RMK A01 T02660064  RH  028%=      5-min Rain = 0
KBO1 241831Z 27005KT 27/06 A2991 RMK A01 T02660057  RH  026%=      5-min Rain = 0
KBO1 241832Z 26004KT 26/05 A2991 RMK A01 T02620052  RH  026%=      5-min Rain = 0
KBO1 241833Z 27003KT 26/05 A2991 RMK A01 T02600053  RH  026%=      5-min Rain = 0
KBO1 241834Z 28005KT 26/06 A2991 RMK A01 T02570057  RH  028%=      5-min Rain = 0
KBO1 241835Z 29006KT 26/05 A2991 RMK A01 T02570054  RH  027%=      5-min Rain = 0
KBO1 241836Z 30005KT 26/06 A2991 RMK A01 T02560055  RH  027%=      5-min Rain = 0
KBO1 241837Z 29004KT 26/06 A2991 RMK A01 T02560057  RH  028%=      5-min Rain = 0
KBO1 241838Z 27002KT 26/06 A2991 RMK A01 T02550056  RH  028%=      5-min Rain = 0
KBO1 241839Z 29000KT 25/05 A2991 RMK A01 T02540053  RH  027%=      5-min Rain = 0
KBO1 241840Z 33000KT 25/05 A299 RMK A01 T02530052  RH  027%=      5-min Rain = 0
KBO1 241841Z 35001KT 26/05 A299 RMK A01 T02550051  RH  027%=      5-min Rain = 0
KBO1 241842Z 28003KT 26/05 A299 RMK A01 T02560050  RH  027%=      5-min Rain = 0
KBO1 241843Z 25005KT 26/05 A299 RMK A01 T02580054  RH  027%=      5-min Rain = 0
KBO1 241844Z 25007KT 26/05 A299 RMK A01 T02620054  RH  026%=      5-min Rain = 0
KBO1 241845Z 22007KT 26/05 A299 RMK A01 T02640052  RH  026%=      5-min Rain = 0
KBO1 241846Z 26006KT 26/06 A299 RMK A01 T02640056  RH  026%=      5-min Rain = 0
KBO1 241847Z 29011KT 27/07 A2989 RMK A01 T02650068  RH  029%=      5-min Rain = 0
KBO1 241848Z 32009KT 27/07 A299 RMK A01 T02680072  RH  029%=      5-min Rain = 0
KBO1 241849Z 30007KT 27/07 A299 RMK A01 T02710071  RH  028%=      5-min Rain = 0
KBO1 241850Z 30007KT 27/07 A299 RMK A01 T02700073  RH  029%=      5-min Rain = 0
KBO1 241851Z 31007KT 27/07 A299 RMK A01 T02680069  RH  028%=      5-min Rain = 0
KBO1 241852Z 31005KT 27/07 A299 RMK A01 T02660070  RH  029%=      5-min Rain = 0
KBO1 241853Z 33005KT 27/07 A299 RMK A01 T02670070  RH  029%=      5-min Rain = 0
KBO1 241854Z 34003KT 27/07 A2989 RMK A01 T02710067  RH  027%=      5-min Rain = 0
KBO1 241855Z 32004KT 27/07 A2989 RMK A01 T02720066  RH  027%=      5-min Rain = 0
KBO1 241856Z 27003KT 27/05 A2989 RMK A01 T02730053  RH  024%=      5-min Rain = 0
KBO1 241857Z 30003KT 27/05 A2989 RMK A01 T02740048  RH  024%=      5-min Rain = 0
KBO1 241858Z 29008KT 27/05 A2989 RMK A01 T02730053  RH  025%=      5-min Rain = 0
KBO1 241859Z 28008KT 27/05 A2989 RMK A01 T02720053  RH  025%=      5-min Rain = 0
KBO1 241900Z 26009KT 27/04 A2989 RMK A01 T02740041  RH  022%=      5-min Rain = 0
KBO1 241901Z 25008KT 27/04 A2989 RMK A01 T02740038  RH  022%=      5-min Rain = 0
KBO1 241902Z 25006KT 27/03 A2989 RMK A01 T02710032  RH  021%=      5-min Rain = 0
KBO1 241903Z 27007KT 27/04 A2989 RMK A01 T02700040  RH  023%=      5-min Rain = 0
KBO1 241904Z 25006KT 27/04 A2989 RMK A01 T02720042  RH  023%=      5-min Rain = 0
KBO1 241905Z 27006KT 27/04 A2989 RMK A01 T02700040  RH  023%=      5-min Rain = 0
KBO1 241906Z 28006KT 27/04 A2989 RMK A01 T02670041  RH  023%=      5-min Rain = 0
KBO1 241907Z 29009KT 27/04 A2989 RMK A01 T02680044  RH  024%=      5-min Rain = 0
KBO1 241908Z 29010KT 27/04 A2989 RMK A01 T02710044  RH  023%=      5-min Rain = 0
KBO1 241909Z 29009KT 27/04 A2989 RMK A01 T02720040  RH  023%=      5-min Rain = 0
KBO1 241910Z 28006KT 27/04 A2989 RMK A01 T02700040  RH  023%=      5-min Rain = 0
KBO1 241911Z 30007KT 27/04 A2989 RMK A01 T02690039  RH  023%=      5-min Rain = 0
KBO1 241912Z 30007KT 27/04 A2989 RMK A01 T02660039  RH  023%=      5-min Rain = 0
KBO1 241913Z 29006KT 27/04 A2989 RMK A01 T02650043  RH  024%=      5-min Rain = 0
KBO1 241914Z 28005KT 27/05 A2989 RMK A01 T02660051  RH  025%=      5-min Rain = 0
KBO1 241915Z 29006KT 27/05 A2989 RMK A01 T02690048  RH  024%=      5-min Rain = 0
KBO1 241916Z 28006KT 27/05 A2989 RMK A01 T02690047  RH  024%=      5-min Rain = 0
KBO1 241917Z 25005KT 27/04 A2989 RMK A01 T02670044  RH  024%=      5-min Rain = 0
KBO1 241918Z 28005KT 27/04 A2989 RMK A01 T02680043  RH  024%=      5-min Rain = 0
KBO1 241919Z 28006KT 27/05 A2989 RMK A01 T02700046  RH  024%=      5-min Rain = 0
KBO1 241920Z 27006KT 27/04 A2989 RMK A01 T02690038  RH  023%=      5-min Rain = 0
KBO1 241921Z 25004KT 27/04 A2989 RMK A01 T02650035  RH  023%=      5-min Rain = 0
KBO1 241922Z 24004KT 26/04 A2989 RMK A01 T02620036  RH  023%=      5-min Rain = 0
KBO1 241923Z 25004KT 26/03 A2989 RMK A01 T02610034  RH  023%=      5-min Rain = 0
KBO1 241924Z 24004KT 26/04 A2989 RMK A01 T02610037  RH  024%=      5-min Rain = 0
KBO1 241925Z 27007KT 26/04 A2989 RMK A01 T02620037  RH  023%=      5-min Rain = 0
KBO1 241926Z 28008KT 26/03 A2989 RMK A01 T02640034  RH  023%=      5-min Rain = 0
KBO1 241927Z 27008KT 26/03 A2989 RMK A01 T02640032  RH  022%=      5-min Rain = 0
KBO1 241928Z 30005KT 26/03 A2989 RMK A01 T02640031  RH  022%=      5-min Rain = 0
KBO1 241929Z 29004KT 26/03 A2989 RMK A01 T02630029  RH  022%=      5-min Rain = 0
KBO1 241930Z 30007KT 26/03 A2988 RMK A01 T02620030  RH  022%=      5-min Rain = 0
KBO1 241931Z 26004KT 26/03 A2988 RMK A01 T02620029  RH  022%=      5-min Rain = 0
KBO1 241932Z 29006KT 26/03 A2988 RMK A01 T02630028  RH  022%=      5-min Rain = 0
KBO1 241933Z 29005KT 27/03 A2988 RMK A01 T02650025  RH  021%=      5-min Rain = 0
KBO1 241934Z 30007KT 27/02 A2988 RMK A01 T02670022  RH  021%=      5-min Rain = 0
KBO1 241935Z 27006KT 27/02 A2988 RMK A01 T02670020  RH  020%=      5-min Rain = 0
KBO1 241936Z 25007KT 27/01 A2988 RMK A01 T02670009  RH  019%=      5-min Rain = 0
KBO1 241937Z 23007KT 27/00 A2988 RMK A01 T02680004  RH  018%=      5-min Rain = 0
KBO1 241938Z 26009KT 27/01 A2988 RMK A01 T02680010  RH  019%=      5-min Rain = 0
KBO1 241939Z 27008KT 27/02 A2988 RMK A01 T02680017  RH  020%=      5-min Rain = 0
KBO1 241940Z 27008KT 27/02 A2988 RMK A01 T02680016  RH  019%=      5-min Rain = 0
KBO1 241941Z 27007KT 27/02 A2988 RMK A01 T02650019  RH  020%=      5-min Rain = 0
KBO1 241942Z 29008KT 27/02 A2988 RMK A01 T02650022  RH  021%=      5-min Rain = 0
KBO1 241943Z 27006KT 27/02 A2988 RMK A01 T02660021  RH  020%=      5-min Rain = 0
KBO1 241944Z 27008KT 27/02 A2988 RMK A01 T02680023  RH  021%=      5-min Rain = 0
KBO1 241945Z 28009KT 27/02 A2988 RMK A01 T02700015  RH  019%=      5-min Rain = 0
KBO1 241946Z 27007KT 27/01 A2988 RMK A01 T02690013  RH  019%=      5-min Rain = 0
KBO1 241947Z 24010KT 27/01 A2988 RMK A01 T02680014  RH  019%=      5-min Rain = 0
KBO1 241948Z 24011KT 27/01 A2988 RMK A01 T02700009  RH  018%=      5-min Rain = 0
KBO1 241949Z 25010KT 27/01 A2988 RMK A01 T02720006  RH  018%=      5-min Rain = 0
KBO1 241950Z 24009KT 27/01 A2988 RMK A01 T02710007  RH  018%=      5-min Rain = 0
KBO1 241951Z 26007KT 27/01 A2988 RMK A01 T02710007  RH  018%=      5-min Rain = 0
KBO1 241952Z 26006KT 27/01 A2988 RMK A01 T02710007  RH  018%=      5-min Rain = 0
KBO1 241953Z 25005KT 27/01 A2988 RMK A01 T02700008  RH  018%=      5-min Rain = 0
KBO1 241954Z 24007KT 27/01 A2988 RMK A01 T02700010  RH  018%=      5-min Rain = 0
KBO1 241955Z 23005KT 27/01 A2988 RMK A01 T02730008  RH  018%=      5-min Rain = 0
KBO1 241956Z 26005KT 28/01 A2988 RMK A01 T02760014  RH  018%=      5-min Rain = 0
KBO1 241957Z 27007KT 28/01 A2988 RMK A01 T02770011  RH  018%=      5-min Rain = 0
KBO1 241958Z 28008KT 28/01 A2988 RMK A01 T02760011  RH  018%=      5-min Rain = 0
KBO1 241959Z 27007KT 27/01 A2987 RMK A01 T02730012  RH  018%=      5-min Rain = 0
KBO1 242000Z 27008KT 28/02 A2987 RMK A01 T02750018  RH  019%=      5-min Rain = 0
KBO1 242001Z 25009KT 28/02 A2987 RMK A01 T02770016  RH  018%=      5-min Rain = 0
KBO1 242002Z 25012KT 28/02 A2987 RMK A01 T02790016  RH  018%=      5-min Rain = 0
KBO1 242003Z 24010KT 28/01 A2987 RMK A01 T02770010  RH  018%=      5-min Rain = 0
KBO1 242004Z 24008KT 28/01 A2987 RMK A01 T02750010  RH  018%=      5-min Rain = 0
KBO1 242005Z 24011KT 27/01 A2987 RMK A01 T02740010  RH  018%=      5-min Rain = 0
KBO1 242006Z 25010KT 28/01 A2988 RMK A01 T02750011  RH  018%=      5-min Rain = 0
KBO1 242007Z 24009KT 28/01 A2988 RMK A01 T02780010  RH  018%=      5-min Rain = 0
KBO1 242008Z 24007KT 28/01 A2988 RMK A01 T02790007  RH  017%=      5-min Rain = 0
KBO1 242009Z 24010KT 28/01 A2987 RMK A01 T02770007  RH  017%=      5-min Rain = 0
KBO1 242010Z 24007KT 28/01 A2987 RMK A01 T02770007  RH  017%=      5-min Rain = 0
KBO1 242011Z 26004KT 28/01 A2987 RMK A01 T02760005  RH  017%=      5-min Rain = 0
KBO1 242012Z 26005KT 28/01 A2987 RMK A01 T02760008  RH  018%=      5-min Rain = 0
KBO1 242013Z 26005KT 28/01 A2987 RMK A01 T02750007  RH  017%=      5-min Rain = 0
KBO1 242014Z 23008KT 27/01 A2987 RMK A01 T02740007  RH  018%=      5-min Rain = 0
KBO1 242015Z 24010KT 28/01 A2987 RMK A01 T02760008  RH  018%=      5-min Rain = 0
KBO1 242016Z 25010KT 28/01 A2987 RMK A01 T02790006  RH  017%=      5-min Rain = 0
KBO1 242017Z 24009KT 28/00 A2987 RMK A01 T02770004  RH  017%=      5-min Rain = 0
KBO1 242018Z 26007KT 28/00 A2987 RMK A01 T02750004  RH  017%=      5-min Rain = 0
KBO1 242019Z 24006KT 28/01 A2987 RMK A01 T02750006  RH  017%=      5-min Rain = 0
KBO1 242020Z 20007KT 28/01 A2987 RMK A01 T02770006  RH  017%=      5-min Rain = 0
KBO1 242021Z 18006KT 28/00 A2987 RMK A01 T02770003  RH  017%=      5-min Rain = 0
KBO1 242022Z 22009KT 28/00 A2987 RMK A01 T02760004  RH  017%=      5-min Rain = 0
KBO1 242023Z 22007KT 28/M00 A2987 RMK A01 T02771001  RH  016%=      5-min Rain = 0
KBO1 242024Z 22008KT 28/00 A2987 RMK A01 T027700-0  RH  016%=      5-min Rain = 0
KBO1 242025Z 22010KT 28/M00 A2987 RMK A01 T02771001  RH  016%=      5-min Rain = 0
KBO1 242026Z 22009KT 28/M00 A2987 RMK A01 T02771001  RH  016%=      5-min Rain = 0
KBO1 242027Z 25008KT 28/M00 A2987 RMK A01 T02771003  RH  016%=      5-min Rain = 0
KBO1 242028Z 27007KT 28/01 A2987 RMK A01 T02780006  RH  017%=      5-min Rain = 0
KBO1 242029Z 26005KT 28/00 A2987 RMK A01 T02810002  RH  016%=      5-min Rain = 0
KBO1 242030Z 23008KT 28/00 A2986 RMK A01 T02810002  RH  016%=      5-min Rain = 0
KBO1 242031Z 25008KT 28/01 A2986 RMK A01 T02830005  RH  016%=      5-min Rain = 0
KBO1 242032Z 25006KT 28/01 A2986 RMK A01 T02840007  RH  017%=      5-min Rain = 0
KBO1 242033Z 26009KT 28/01 A2986 RMK A01 T02840010  RH  017%=      5-min Rain = 0
KBO1 242034Z 26008KT 29/01 A2986 RMK A01 T02880007  RH  016%=      5-min Rain = 0
KBO1 242035Z 26011KT 29/01 A2986 RMK A01 T02900008  RH  016%=      5-min Rain = 0
KBO1 242036Z 25013KT 29/00 A2986 RMK A01 T02910004  RH  016%=      5-min Rain = 0
KBO1 242037Z 23007KT 29/M00 A2986 RMK A01 T02881001  RH  015%=      5-min Rain = 0
KBO1 242038Z 23006KT 28/M00 A2986 RMK A01 T02841002  RH  016%=      5-min Rain = 0
KBO1 242039Z 24008KT 28/00 A2986 RMK A01 T02820003  RH  016%=      5-min Rain = 0
KBO1 242040Z 27012KT 28/00 A2986 RMK A01 T02830000  RH  016%=      5-min Rain = 0
KBO1 242041Z 26012KT 28/00 A2986 RMK A01 T02840004  RH  016%=      5-min Rain = 0
KBO1 242042Z 26009KT 29/00 A2986 RMK A01 T028500-0  RH  016%=      5-min Rain = 0
KBO1 242043Z 25008KT 29/00 A2986 RMK A01 T02850004  RH  016%=      5-min Rain = 0
KBO1 242044Z 24009KT 29/00 A2986 RMK A01 T02860001  RH  016%=      5-min Rain = 0
KBO1 242045Z 25008KT 29/M00 A2986 RMK A01 T02861001  RH  016%=      5-min Rain = 0
KBO1 242046Z 24007KT 28/M00 A2986 RMK A01 T02841002  RH  016%=      5-min Rain = 0
KBO1 242047Z 25006KT 28/00 A2986 RMK A01 T02830000  RH  016%=      5-min Rain = 0
KBO1 242048Z 23007KT 28/00 A2986 RMK A01 T028300-0  RH  016%=      5-min Rain = 0
KBO1 242049Z 24006KT 28/M00 A2986 RMK A01 T02821003  RH  016%=      5-min Rain = 0
KBO1 242050Z 24003KT 28/M00 A2986 RMK A01 T02801002  RH  016%=      5-min Rain = 0
KBO1 242051Z 24004KT 28/00 A2985 RMK A01 T02810002  RH  016%=      5-min Rain = 0
KBO1 242052Z 32005KT 28/01 A2985 RMK A01 T02830006  RH  017%=      5-min Rain = 0
KBO1 242053Z 32003KT 28/00 A2985 RMK A01 T028300-0  RH  016%=      5-min Rain = 0
KBO1 242054Z 31002KT 28/00 A2985 RMK A01 T02810001  RH  016%=      5-min Rain = 0
KBO1 242055Z 24004KT 28/01 A2985 RMK A01 T02820007  RH  017%=      5-min Rain = 0
KBO1 242056Z 22006KT 28/01 A2985 RMK A01 T02840006  RH  016%=      5-min Rain = 0
KBO1 242057Z 22009KT 29/01 A2985 RMK A01 T02860005  RH  016%=      5-min Rain = 0
KBO1 242058Z 23005KT 29/00 A2985 RMK A01 T02860001  RH  016%=      5-min Rain = 0
KBO1 242059Z 21006KT 29/00 A2985 RMK A01 T02860001  RH  016%=      5-min Rain = 0
KBO1 242100Z 24003KT 28/M01 A2985 RMK A01 T02831005  RH  015%=      5-min Rain = 0
KBO1 242101Z 23005G10KT 28/M00 A2985 RMK A01 T02781004  RH  016%=      5-min Rain = 0
KBO1 242102Z 22009KT 28/M01 A2985 RMK A01 T02771006  RH  016%=      5-min Rain = 0
KBO1 242103Z 20004KT 28/M01 A2985 RMK A01 T02781009  RH  015%=      5-min Rain = 0
KBO1 242104Z 19003KT 28/M01 A2985 RMK A01 T02781007  RH  016%=      5-min Rain = 0
KBO1 242105Z 18003KT 28/M01 A2985 RMK A01 T02781006  RH  016%=      5-min Rain = 0
KBO1 242106Z 20005KT 28/M01 A2985 RMK A01 T02791005  RH  016%=      5-min Rain = 0
KBO1 242107Z 20005KT 28/M01 A2985 RMK A01 T02801009  RH  015%=      5-min Rain = 0
KBO1 242108Z 20002KT 28/M01 A2984 RMK A01 T02811008  RH  015%=      5-min Rain = 0
KBO1 242109Z 25002KT 28/M01 A2984 RMK A01 T02841009  RH  015%=      5-min Rain = 0
KBO1 242110Z 20005KT 29/M01 A2984 RMK A01 T02861005  RH  015%=      5-min Rain = 0
KBO1 242111Z 23013G19KT 29/M01 A2984 RMK A01 T02891005  RH  015%=      5-min Rain = 0
KBO1 242112Z 26007KT 29/M01 A2984 RMK A01 T02911014  RH  014%=      5-min Rain = 0
KBO1 242113Z 26006KT 29/M01 A2984 RMK A01 T02911014  RH  014%=      5-min Rain = 0
KBO1 242114Z 24009KT 29/M01 A2984 RMK A01 T02911006  RH  015%=      5-min Rain = 0
KBO1 242115Z 24011KT 30/M01 A2984 RMK A01 T02951011  RH  014%=      5-min Rain = 0
KBO1 242116Z 24009KT 29/M01 A2984 RMK A01 T02941014  RH  013%=      5-min Rain = 0
KBO1 242117Z 24010KT 29/M01 A2984 RMK A01 T02931013  RH  014%=      5-min Rain = 0
KBO1 242118Z 24008KT 29/M02 A2984 RMK A01 T02931018  RH  013%=      5-min Rain = 0
KBO1 242119Z 25006KT 29/M01 A2984 RMK A01 T02911012  RH  014%=      5-min Rain = 0
KBO1 242120Z 27006KT 29/M01 A2983 RMK A01 T02911009  RH  014%=      5-min Rain = 0
KBO1 242121Z 26003KT 29/M01 A2983 RMK A01 T02911011  RH  014%=      5-min Rain = 0
KBO1 242122Z 21003KT 29/M01 A2983 RMK A01 T02911010  RH  014%=      5-min Rain = 0
KBO1 242123Z 23009G15KT 29/M01 A2983 RMK A01 T02901011  RH  014%=      5-min Rain = 0
KBO1 242124Z 24012KT 29/M02 A2983 RMK A01 T02931018  RH  013%=      5-min Rain = 0
KBO1 242125Z 23008KT 29/M02 A2983 RMK A01 T02941020  RH  013%=      5-min Rain = 0
KBO1 242126Z 26009KT 29/M02 A2983 RMK A01 T02931020  RH  013%=      5-min Rain = 0
KBO1 242127Z 23006KT 29/M02 A2983 RMK A01 T02931024  RH  013%=      5-min Rain = 0
KBO1 242128Z 23007KT 29/M02 A2983 RMK A01 T02931019  RH  013%=      5-min Rain = 0
KBO1 242129Z 18006KT 30/M02 A2983 RMK A01 T02951023  RH  012%=      5-min Rain = 0
KBO1 242130Z 21006G11KT 30/M02 A2983 RMK A01 T02961021  RH  013%=      5-min Rain = 0
KBO1 242131Z 20007KT 29/M03 A2983 RMK A01 T02941027  RH  012%=      5-min Rain = 0
KBO1 242132Z 18006G11KT 29/M03 A2983 RMK A01 T02911025  RH  013%=      5-min Rain = 0
KBO1 242133Z 18013KT 29/M02 A2983 RMK A01 T02921020  RH  013%=      5-min Rain = 0
KBO1 242134Z 19014KT 30/M03 A2983 RMK A01 T02971027  RH  012%=      5-min Rain = 0
KBO1 242135Z 19012KT 30/M03 A2983 RMK A01 T02981033  RH  011%=      5-min Rain = 0
KBO1 242136Z 19009KT 30/M03 A2983 RMK A01 T02971027  RH  012%=      5-min Rain = 0
KBO1 242137Z 19007KT 30/M03 A2982 RMK A01 T02991033  RH  011%=      5-min Rain = 0
KBO1 242138Z 17008KT 30/M04 A2982 RMK A01 T02981035  RH  011%=      5-min Rain = 0
KBO1 242139Z 16009KT 30/M04 A2982 RMK A01 T02961035  RH  011%=      5-min Rain = 0
KBO1 242140Z 14006KT 29/M03 A2982 RMK A01 T02941032  RH  012%=      5-min Rain = 0
KBO1 242141Z 19006KT 30/M03 A2982 RMK A01 T02951027  RH  012%=      5-min Rain = 0
KBO1 242142Z 23009KT 30/M03 A2982 RMK A01 T02991031  RH  012%=      5-min Rain = 0
KBO1 242143Z 24008KT 30/M04 A2982 RMK A01 T03001036  RH  011%=      5-min Rain = 0
KBO1 242144Z 23008KT 30/M03 A2982 RMK A01 T03001033  RH  011%=      5-min Rain = 0
KBO1 242145Z 23012KT 30/M02 A2982 RMK A01 T03031023  RH  012%=      5-min Rain = 0
KBO1 242146Z 23015KT 31/M03 A2982 RMK A01 T03061028  RH  011%=      5-min Rain = 0
KBO1 242147Z 23013KT 31/M03 A2982 RMK A01 T03061031  RH  011%=      5-min Rain = 0
KBO1 242148Z 21015KT 30/M03 A2982 RMK A01 T03011031  RH  011%=      5-min Rain = 0
KBO1 242149Z 20015KT 30/M03 A2982 RMK A01 T03001029  RH  012%=      5-min Rain = 0
KBO1 242150Z 20011KT 30/M04 A2981 RMK A01 T03001035  RH  011%=      5-min Rain = 0
KBO1 242151Z 18013G18KT 30/M03 A2981 RMK A01 T02991032  RH  012%=      5-min Rain = 0
KBO1 242152Z 19015KT 30/M03 A2981 RMK A01 T03001028  RH  012%=      5-min Rain = 0
KBO1 242153Z 19014KT 30/M03 A2981 RMK A01 T03021031  RH  011%=      5-min Rain = 0
KBO1 242154Z 20013KT 30/M03 A2981 RMK A01 T03031032  RH  011%=      5-min Rain = 0
KBO1 242155Z 20010G17KT 30/M04 A2981 RMK A01 T03011040  RH  011%=      5-min Rain = 0
KBO1 242156Z 20012KT 30/M03 A2981 RMK A01 T02971030  RH  012%=      5-min Rain = 0
KBO1 242157Z 21011KT 30/M04 A2981 RMK A01 T02991035  RH  011%=      5-min Rain = 0
KBO1 242158Z 22008KT 30/M04 A2981 RMK A01 T02971041  RH  011%=      5-min Rain = 0
KBO1 242159Z 22008KT 30/M04 A2981 RMK A01 T02951036  RH  011%=      5-min Rain = 0
KBO1 242200Z 22010KT 30/M04 A2981 RMK A01 T02981035  RH  011%=      5-min Rain = 0
KBO1 242201Z 22009KT 30/M04 A2981 RMK A01 T02981039  RH  011%=      5-min Rain = 0
KBO1 242202Z 22007KT 30/M03 A2981 RMK A01 T02971030  RH  012%=      5-min Rain = 0
KBO1 242203Z 21011KT 30/M03 A2981 RMK A01 T02981034  RH  011%=      5-min Rain = 0
KBO1 242204Z 20015KT 30/M03 A2981 RMK A01 T03001032  RH  011%=      5-min Rain = 0
KBO1 242205Z 19018KT 30/M03 A298 RMK A01 T03021033  RH  011%=      5-min Rain = 0
KBO1 242206Z 22013KT 30/M03 A2981 RMK A01 T03021032  RH  011%=      5-min Rain = 0
KBO1 242207Z 21013KT 30/M04 A298 RMK A01 T03021035  RH  011%=      5-min Rain = 0
KBO1 242208Z 20013KT 30/M04 A298 RMK A01 T03001036  RH  011%=      5-min Rain = 0
KBO1 242209Z 19011KT 30/M04 A298 RMK A01 T02991036  RH  011%=      5-min Rain = 0
KBO1 242210Z 20014KT 30/M04 A298 RMK A01 T02981036  RH  011%=      5-min Rain = 0
KBO1 242211Z 20012KT 30/M04 A298 RMK A01 T02981039  RH  011%=      5-min Rain = 0
KBO1 242212Z 20012G17KT 30/M04 A298 RMK A01 T02961041  RH  011%=      5-min Rain = 0
KBO1 242213Z 18015KT 30/M03 A298 RMK A01 T02961032  RH  012%=      5-min Rain = 0
KBO1 242214Z 21014KT 30/M03 A298 RMK A01 T03001030  RH  012%=      5-min Rain = 0
KBO1 242215Z 21011KT 30/M04 A298 RMK A01 T03011038  RH  011%=      5-min Rain = 0
KBO1 242216Z 20008KT 30/M04 A298 RMK A01 T02971043  RH  011%=      5-min Rain = 0
KBO1 242217Z 18011KT 30/M04 A298 RMK A01 T02951039  RH  011%=      5-min Rain = 0
KBO1 242218Z 18007KT 30/M04 A298 RMK A01 T02951038  RH  011%=      5-min Rain = 0
KBO1 242219Z 20011KT 30/M03 A298 RMK A01 T02971031  RH  012%=      5-min Rain = 0
KBO1 242220Z 22017G23KT 30/M03 A2979 RMK A01 T03031030  RH  011%=      5-min Rain = 0
KBO1 242221Z 23020KT 30/M04 A2979 RMK A01 T03041038  RH  011%=      5-min Rain = 0
KBO1 242222Z 23020G25KT 30/M04 A2979 RMK A01 T03031037  RH  011%=      5-min Rain = 0
KBO1 242223Z 24020KT 30/M04 A2979 RMK A01 T03021041  RH  010%=      5-min Rain = 0
KBO1 242224Z 24018KT 30/M04 A2979 RMK A01 T03001041  RH  011%=      5-min Rain = 0
KBO1 242225Z 24019KT 30/M04 A2979 RMK A01 T03001041  RH  011%=      5-min Rain = 0
KBO1 242226Z 23015KT 30/M04 A2979 RMK A01 T03001036  RH  011%=      5-min Rain = 0
KBO1 242227Z 23016KT 30/M04 A2979 RMK A01 T03021040  RH  011%=      5-min Rain = 0
KBO1 242228Z 22018KT 30/M04 A2979 RMK A01 T03021039  RH  011%=      5-min Rain = 0
KBO1 242229Z 23014G20KT 30/M03 A2979 RMK A01 T03021032  RH  011%=      5-min Rain = 0
KBO1 242230Z 22018KT 31/M04 A2979 RMK A01 T03051036  RH  011%=      5-min Rain = 0
KBO1 242231Z 22014G19KT 31/M03 A2979 RMK A01 T03051032  RH  011%=      5-min Rain = 0
KBO1 242232Z 23015KT 31/M03 A2979 RMK A01 T03051034  RH  011%=      5-min Rain = 0
KBO1 242233Z 22015KT 30/M04 A2979 RMK A01 T03031041  RH  010%=      5-min Rain = 0
KBO1 242234Z 21016KT 30/M03 A2979 RMK A01 T03011034  RH  011%=      5-min Rain = 0
KBO1 242235Z 22017KT 30/M04 A2979 RMK A01 T03011039  RH  011%=      5-min Rain = 0
KBO1 242236Z 20015KT 30/M04 A2979 RMK A01 T02991037  RH  011%=      5-min Rain = 0
KBO1 242237Z 19015KT 30/M04 A2979 RMK A01 T02991039  RH  011%=      5-min Rain = 0
KBO1 242238Z 21012KT 30/M04 A2979 RMK A01 T02981039  RH  011%=      5-min Rain = 0
KBO1 242239Z 20012KT 30/M04 A2979 RMK A01 T02971040  RH  011%=      5-min Rain = 0
KBO1 242240Z 21016KT 30/M04 A2979 RMK A01 T02981037  RH  011%=      5-min Rain = 0
KBO1 242241Z 21015G20KT 30/M03 A2979 RMK A01 T02991033  RH  011%=      5-min Rain = 0
KBO1 242242Z 20017KT 30/M03 A2979 RMK A01 T03011031  RH  011%=      5-min Rain = 0
KBO1 242243Z 21018G26KT 30/M03 A2979 RMK A01 T03021034  RH  011%=      5-min Rain = 0
KBO1 242244Z 22012G19KT 30/M04 A2979 RMK A01 T02991042  RH  011%=      5-min Rain = 0
KBO1 242245Z 22013KT 30/M04 A2979 RMK A01 T02971039  RH  011%=      5-min Rain = 0
KBO1 242246Z 21012KT 30/M04 A2979 RMK A01 T02971037  RH  011%=      5-min Rain = 0
KBO1 242247Z 20011KT 30/M03 A2979 RMK A01 T02981031  RH  012%=      5-min Rain = 0
KBO1 242248Z 21011KT 30/M04 A2979 RMK A01 T03001035  RH  011%=      5-min Rain = 0
KBO1 242249Z 19013KT 30/M04 A2979 RMK A01 T03001036  RH  011%=      5-min Rain = 0
KBO1 242250Z 20013KT 30/M04 A2979 RMK A01 T02991038  RH  011%=      5-min Rain = 0
KBO1 242251Z 20013KT 30/M04 A2978 RMK A01 T02991037  RH  011%=      5-min Rain = 0
KBO1 242252Z 21012KT 30/M03 A2978 RMK A01 T02981033  RH  011%=      5-min Rain = 0
KBO1 242253Z 22014KT 30/M03 A2978 RMK A01 T03001029  RH  012%=      5-min Rain = 0
KBO1 242254Z 21012KT 30/M03 A2978 RMK A01 T03011031  RH  011%=      5-min Rain = 0
KBO1 242255Z 20013KT 30/M03 A2978 RMK A01 T03021025  RH  012%=      5-min Rain = 0
KBO1 242256Z 19013KT 30/M04 A2978 RMK A01 T03021036  RH  011%=      5-min Rain = 0
KBO1 242257Z 19014KT 30/M04 A2978 RMK A01 T03001039  RH  011%=      5-min Rain = 0
KBO1 242258Z 19010KT 30/M04 A2978 RMK A01 T02971041  RH  011%=      5-min Rain = 0
KBO1 242259Z 19007KT 30/M04 A2978 RMK A01 T02951039  RH  011%=      5-min Rain = 0
KBO1 242300Z 20008KT 30/M03 A2978 RMK A01 T02961034  RH  011%=      5-min Rain = 0
KBO1 242301Z 19009KT 30/M04 A2978 RMK A01 T02991036  RH  011%=      5-min Rain = 0
KBO1 242302Z 19009KT 30/M04 A2978 RMK A01 T02981039  RH  011%=      5-min Rain = 0
KBO1 242303Z 22009KT 30/M04 A2978 RMK A01 T02961038  RH  011%=      5-min Rain = 0
KBO1 242304Z 22009KT 30/M04 A2978 RMK A01 T02961038  RH  011%=      5-min Rain = 0
KBO1 242305Z 23009KT 30/M04 A2978 RMK A01 T02951037  RH  011%=      5-min Rain = 0
KBO1 242306Z 22014KT 30/M04 A2978 RMK A01 T02961035  RH  011%=      5-min Rain = 0
KBO1 242307Z 22012KT 30/M04 A2977 RMK A01 T02951040  RH  011%=      5-min Rain = 0
KBO1 242308Z 21011KT 29/M04 A2977 RMK A01 T02911043  RH  011%=      5-min Rain = 0
KBO1 242309Z 20010KT 29/M04 A2977 RMK A01 T02901041  RH  011%=      5-min Rain = 0
KBO1 242310Z 20009KT 29/M04 A2977 RMK A01 T02911039  RH  011%=      5-min Rain = 0
KBO1 242311Z 21011G18KT 29/M04 A2977 RMK A01 T02941036  RH  011%=      5-min Rain = 0
KBO1 242312Z 24016KT 30/M04 A2977 RMK A01 T02971042  RH  011%=      5-min Rain = 0
KBO1 242313Z 25013KT 30/M05 A2977 RMK A01 T02971048  RH  010%=      5-min Rain = 0
KBO1 242314Z 24016KT 30/M05 A2977 RMK A01 T02991046  RH  010%=      5-min Rain = 0
KBO1 242315Z 24018KT 30/M04 A2976 RMK A01 T03001043  RH  010%=      5-min Rain = 0
KBO1 242316Z 23016KT 30/M04 A2977 RMK A01 T03011042  RH  010%=      5-min Rain = 0
KBO1 242317Z 23010KT 30/M04 A2977 RMK A01 T03001037  RH  011%=      5-min Rain = 0
KBO1 242318Z 22014KT 30/M03 A2977 RMK A01 T03011031  RH  011%=      5-min Rain = 0
KBO1 242319Z 22016G21KT 30/M04 A2976 RMK A01 T03031037  RH  011%=      5-min Rain = 0
KBO1 242320Z 23016KT 30/M04 A2976 RMK A01 T03021040  RH  011%=      5-min Rain = 0
KBO1 242321Z 23016KT 30/M04 A2976 RMK A01 T03001043  RH  010%=      5-min Rain = 0
KBO1 242322Z 22012G17KT 30/M04 A2976 RMK A01 T02991041  RH  011%=      5-min Rain = 0
KBO1 242323Z 22016KT 30/M04 A2976 RMK A01 T02981042  RH  011%=      5-min Rain = 0
KBO1 242324Z 20017G22KT 30/M04 A2976 RMK A01 T02981038  RH  011%=      5-min Rain = 0
KBO1 242325Z 20016KT 30/M04 A2976 RMK A01 T02981041  RH  011%=      5-min Rain = 0
KBO1 242326Z 20011KT 30/M05 A2976 RMK A01 T02971045  RH  011%=      5-min Rain = 0
KBO1 242327Z 20011KT 30/M04 A2976 RMK A01 T02971042  RH  011%=      5-min Rain = 0
KBO1 242328Z 22008KT 30/M05 A2976 RMK A01 T02971045  RH  011%=      5-min Rain = 0
KBO1 242329Z 22009G14KT 30/M04 A2976 RMK A01 T02961044  RH  011%=      5-min Rain = 0
KBO1 242330Z 22010KT 30/M04 A2976 RMK A01 T02961037  RH  011%=      5-min Rain = 0
KBO1 242331Z 23013KT 30/M03 A2976 RMK A01 T02981034  RH  011%=      5-min Rain = 0
KBO1 242332Z 24019KT 30/M04 A2976 RMK A01 T03011043  RH  010%=      5-min Rain = 0
KBO1 242333Z 23018KT 30/M05 A2975 RMK A01 T03011047  RH  010%=      5-min Rain = 0
KBO1 242334Z 22017KT 30/M05 A2975 RMK A01 T02981046  RH  010%=      5-min Rain = 0
KBO1 242335Z 23019G24KT 30/M04 A2975 RMK A01 T02981044  RH  011%=      5-min Rain = 0
KBO1 242336Z 23020KT 30/M05 A2975 RMK A01 T02981050  RH  010%=      5-min Rain = 0
KBO1 242337Z 22021KT 30/M05 A2975 RMK A01 T02971048  RH  010%=      5-min Rain = 0
KBO1 242338Z 23018KT 30/M05 A2975 RMK A01 T02961048  RH  010%=      5-min Rain = 0
KBO1 242339Z 24017KT 30/M05 A2975 RMK A01 T02961045  RH  011%=      5-min Rain = 0
KBO1 242340Z 26017KT 30/M05 A2975 RMK A01 T02981045  RH  010%=      5-min Rain = 0
KBO1 242341Z 25016KT 30/M05 A2975 RMK A01 T02981048  RH  010%=      5-min Rain = 0
KBO1 242342Z 24016KT 30/M05 A2975 RMK A01 T02971045  RH  010%=      5-min Rain = 0
KBO1 242343Z 22015KT 30/M05 A2975 RMK A01 T02971048  RH  010%=      5-min Rain = 0
KBO1 242344Z 23012G17KT 30/M05 A2975 RMK A01 T02961051  RH  010%=      5-min Rain = 0
KBO1 242345Z 26010G15KT 29/M05 A2975 RMK A01 T02941049  RH  010%=      5-min Rain = 0
KBO1 242346Z 26009KT 29/M05 A2975 RMK A01 T02941051  RH  010%=      5-min Rain = 0
KBO1 242347Z 25013KT 30/M05 A2975 RMK A01 T02951046  RH  011%=      5-min Rain = 0
KBO1 242348Z 26014KT 29/M04 A2975 RMK A01 T02941044  RH  011%=      5-min Rain = 0
KBO1 242349Z 25012KT 30/M05 A2975 RMK A01 T02951046  RH  011%=      5-min Rain = 0
KBO1 242350Z 25012KT 29/M04 A2975 RMK A01 T02941041  RH  011%=      5-min Rain = 0
KBO1 242351Z 24012KT 30/M04 A2976 RMK A01 T02961043  RH  011%=      5-min Rain = 0
KBO1 242352Z 24013KT 30/M05 A2976 RMK A01 T02971047  RH  010%=      5-min Rain = 0
KBO1 242353Z 24012KT 30/M05 A2976 RMK A01 T02961051  RH  010%=      5-min Rain = 0
KBO1 242354Z 24009KT 30/M05 A2976 RMK A01 T02951050  RH  010%=      5-min Rain = 0
KBO1 242355Z 23009KT 30/M05 A2976 RMK A01 T02951051  RH  010%=      5-min Rain = 0
KBO1 242356Z 23012KT 30/M05 A2976 RMK A01 T02951049  RH  010%=      5-min Rain = 0
KBO1 242357Z 23014KT 30/M05 A2976 RMK A01 T02951048  RH  010%=      5-min Rain = 0
KBO1 242358Z 21013KT 29/M05 A2976 RMK A01 T02941049  RH  010%=      5-min Rain = 0
KBO1 242359Z 22013KT 29/M04 A2976 RMK A01 T02931043  RH  011%=      5-min Rain = 0
KBO1 250000Z 23013KT 29/M05 A2976 RMK A01 T02941048  RH  010%=      5-min Rain = 0
KBO1 250001Z 24013KT 29/M05 A2976 RMK A01 T02941050  RH  010%=      5-min Rain = 0
KBO1 250002Z 23012KT 30/M05 A2976 RMK A01 T02951051  RH  010%=      5-min Rain = 0
KBO1 250003Z 23011KT 30/M06 A2976 RMK A01 T02951058  RH  010%=      5-min Rain = 0
KBO1 250004Z 23012KT 29/M06 A2976 RMK A01 T02941055  RH  010%=      5-min Rain = 0
KBO1 250005Z 23011KT 29/M05 A2976 RMK A01 T02941051  RH  010%=      5-min Rain = 0
KBO1 250006Z 25013KT 30/M05 A2976 RMK A01 T02951053  RH  010%=      5-min Rain = 0
KBO1 250007Z 24014KT 30/M05 A2976 RMK A01 T02951053  RH  010%=      5-min Rain = 0
KBO1 250008Z 24012G17KT 30/M06 A2975 RMK A01 T02951057  RH  010%=      5-min Rain = 0
KBO1 250009Z 24015KT 29/M05 A2975 RMK A01 T02941053  RH  010%=      5-min Rain = 0
KBO1 250010Z 23014KT 29/M05 A2975 RMK A01 T02941054  RH  010%=      5-min Rain = 0
KBO1 250011Z 23015KT 29/M05 A2975 RMK A01 T02941052  RH  010%=      5-min Rain = 0
KBO1 250012Z 23014KT 29/M05 A2975 RMK A01 T02931054  RH  010%=      5-min Rain = 0
KBO1 250013Z 24012KT 29/M05 A2975 RMK A01 T02931052  RH  010%=      5-min Rain = 0
KBO1 250014Z 25013KT 29/M05 A2975 RMK A01 T02931049  RH  010%=      5-min Rain = 0
KBO1 250015Z 25014KT 29/M05 A2975 RMK A01 T02941049  RH  010%=      5-min Rain = 0
KBO1 250016Z 25015KT 29/M05 A2975 RMK A01 T02941046  RH  011%=      5-min Rain = 0
KBO1 250017Z 25015KT 29/M05 A2975 RMK A01 T02941049  RH  010%=      5-min Rain = 0
KBO1 250018Z 25014KT 29/M05 A2975 RMK A01 T02931050  RH  010%=      5-min Rain = 0
KBO1 250019Z 26014KT 29/M05 A2975 RMK A01 T02931051  RH  010%=      5-min Rain = 0
KBO1 250020Z 25011KT 29/M05 A2975 RMK A01 T02931052  RH  010%=      5-min Rain = 0
KBO1 250021Z 24011KT 29/M05 A2975 RMK A01 T02921050  RH  010%=      5-min Rain = 0
KBO1 250022Z 25010KT 29/M05 A2975 RMK A01 T02931049  RH  010%=      5-min Rain = 0
KBO1 250023Z 24011KT 29/M05 A2975 RMK A01 T02931049  RH  010%=      5-min Rain = 0
KBO1 250024Z 25009KT 29/M06 A2975 RMK A01 T02931055  RH  010%=      5-min Rain = 0
KBO1 250025Z 24010KT 29/M06 A2975 RMK A01 T02931055  RH  010%=      5-min Rain = 0
KBO1 250026Z 25010KT 29/M05 A2975 RMK A01 T02931053  RH  010%=      5-min Rain = 0
KBO1 250027Z 24009KT 29/M05 A2975 RMK A01 T02921052  RH  010%=      5-min Rain = 0
KBO1 250028Z 24010KT 29/M05 A2975 RMK A01 T02931052  RH  010%=      5-min Rain = 0
KBO1 250029Z 23008KT 29/M06 A2975 RMK A01 T02931058  RH  010%=      5-min Rain = 0
KBO1 250030Z 22010KT 29/M05 A2975 RMK A01 T02921054  RH  010%=      5-min Rain = 0
KBO1 250031Z 23008KT 29/M06 A2975 RMK A01 T02921055  RH  010%=      5-min Rain = 0
KBO1 250032Z 23007KT 29/M05 A2975 RMK A01 T02921052  RH  010%=      5-min Rain = 0
KBO1 250033Z 24008KT 29/M05 A2975 RMK A01 T02921050  RH  010%=      5-min Rain = 0
KBO1 250034Z 24007KT 29/M06 A2975 RMK A01 T02921055  RH  010%=      5-min Rain = 0
KBO1 250035Z 25009KT 29/M05 A2975 RMK A01 T02921054  RH  010%=      5-min Rain = 0
KBO1 250036Z 24008KT 29/M05 A2975 RMK A01 T02911053  RH  010%=      5-min Rain = 0
KBO1 250037Z 24007KT 29/M05 A2975 RMK A01 T02901052  RH  010%=      5-min Rain = 0
KBO1 250038Z 24009KT 29/M05 A2975 RMK A01 T02911048  RH  011%=      5-min Rain = 0
KBO1 250039Z 23009KT 29/M04 A2975 RMK A01 T02911043  RH  011%=      5-min Rain = 0
KBO1 250040Z 24011KT 29/M04 A2975 RMK A01 T02911044  RH  011%=      5-min Rain = 0
KBO1 250041Z 24011KT 29/M05 A2975 RMK A01 T02911047  RH  011%=      5-min Rain = 0
KBO1 250042Z 23012KT 29/M05 A2975 RMK A01 T02901052  RH  010%=      5-min Rain = 0
KBO1 250043Z 23009KT 29/M05 A2975 RMK A01 T02891048  RH  011%=      5-min Rain = 0
KBO1 250044Z 23010KT 29/M05 A2975 RMK A01 T02891045  RH  011%=      5-min Rain = 0
KBO1 250045Z 23011KT 29/M05 A2975 RMK A01 T02881047  RH  011%=      5-min Rain = 0
KBO1 250046Z 23014KT 29/M05 A2975 RMK A01 T02881048  RH  011%=      5-min Rain = 0
KBO1 250047Z 23013KT 29/M05 A2975 RMK A01 T02871049  RH  011%=      5-min Rain = 0
KBO1 250048Z 22012KT 29/M05 A2975 RMK A01 T02871049  RH  011%=      5-min Rain = 0
KBO1 250049Z 22012KT 29/M05 A2975 RMK A01 T02861049  RH  011%=      5-min Rain = 0
KBO1 250050Z 22010KT 29/M05 A2975 RMK A01 T02861048  RH  011%=      5-min Rain = 0
KBO1 250051Z 22010KT 29/M04 A2975 RMK A01 T02851042  RH  012%=      5-min Rain = 0
KBO1 250052Z 21011KT 29/M04 A2975 RMK A01 T02851043  RH  011%=      5-min Rain = 0
KBO1 250053Z 21011KT 29/M04 A2975 RMK A01 T02851039  RH  012%=      5-min Rain = 0
KBO1 250054Z 20011KT 28/M04 A2975 RMK A01 T02841042  RH  012%=      5-min Rain = 0
KBO1 250055Z 20011KT 28/M04 A2975 RMK A01 T02831044  RH  011%=      5-min Rain = 0
KBO1 250056Z 20011KT 28/M05 A2975 RMK A01 T02831046  RH  011%=      5-min Rain = 0
KBO1 250057Z 20010KT 28/M04 A2975 RMK A01 T02821044  RH  012%=      5-min Rain = 0
KBO1 250058Z 20009KT 28/M04 A2975 RMK A01 T02811043  RH  012%=      5-min Rain = 0
KBO1 250059Z 21010KT 28/M04 A2975 RMK A01 T02811042  RH  012%=      5-min Rain = 0
KBO1 250100Z 21011KT 28/M04 A2975 RMK A01 T02801044  RH  012%=      5-min Rain = 0
KBO1 250101Z 21011KT 28/M04 A2975 RMK A01 T02801044  RH  012%=      5-min Rain = 0
KBO1 250102Z 22011KT 28/M05 A2975 RMK A01 T02791047  RH  011%=      5-min Rain = 0
KBO1 250103Z 22010KT 28/M05 A2975 RMK A01 T02791048  RH  011%=      5-min Rain = 0
KBO1 250104Z 22008KT 28/M04 A2975 RMK A01 T02791043  RH  012%=      5-min Rain = 0
KBO1 250105Z 22008KT 28/M04 A2975 RMK A01 T02781038  RH  012%=      5-min Rain = 0
KBO1 250106Z 22008KT 28/M03 A2975 RMK A01 T02771034  RH  013%=      5-min Rain = 0
KBO1 250107Z 22008KT 28/M03 A2975 RMK A01 T02761032  RH  013%=      5-min Rain = 0
KBO1 250108Z 22010KT 28/M04 A2975 RMK A01 T02751036  RH  013%=      5-min Rain = 0
KBO1 250109Z 22010KT 27/M04 A2975 RMK A01 T02741039  RH  012%=      5-min Rain = 0
KBO1 250110Z 22009KT 27/M04 A2975 RMK A01 T02741039  RH  013%=      5-min Rain = 0
KBO1 250111Z 21008KT 27/M04 A2975 RMK A01 T02731037  RH  013%=      5-min Rain = 0
KBO1 250112Z 21008KT 27/M03 A2975 RMK A01 T02721034  RH  013%=      5-min Rain = 0
KBO1 250113Z 21008KT 27/M03 A2975 RMK A01 T02711031  RH  014%=      5-min Rain = 0
KBO1 250114Z 21009KT 27/M03 A2975 RMK A01 T02691028  RH  014%=      5-min Rain = 0
KBO1 250115Z 21009KT 27/M03 A2975 RMK A01 T02681029  RH  014%=      5-min Rain = 0
KBO1 250116Z 21009KT 27/M04 A2975 RMK A01 T02671035  RH  014%=      5-min Rain = 0
KBO1 250117Z 21009KT 27/M04 A2975 RMK A01 T02671037  RH  013%=      5-min Rain = 0
KBO1 250118Z 21008KT 27/M04 A2975 RMK A01 T02671037  RH  013%=      5-min Rain = 0
KBO1 250119Z 20008KT 27/M04 A2975 RMK A01 T02671035  RH  013%=      5-min Rain = 0
KBO1 250120Z 20008KT 27/M03 A2975 RMK A01 T02651032  RH  014%=      5-min Rain = 0
KBO1 250121Z 20008KT 26/M03 A2974 RMK A01 T02631032  RH  014%=      5-min Rain = 0
KBO1 250122Z 20008KT 26/M03 A2974 RMK A01 T02621031  RH  014%=      5-min Rain = 0
KBO1 250123Z 21008KT 26/M03 A2974 RMK A01 T02601030  RH  015%=      5-min Rain = 0
KBO1 250124Z 21008KT 26/M03 A2974 RMK A01 T02581028  RH  015%=      5-min Rain = 0
KBO1 250125Z 21008KT 26/M03 A2974 RMK A01 T02571028  RH  015%=      5-min Rain = 0
KBO1 250126Z 21009KT 26/M03 A2974 RMK A01 T02551027  RH  015%=      5-min Rain = 0
KBO1 250127Z 21008KT 25/M03 A2974 RMK A01 T02541027  RH  015%=      5-min Rain = 0
KBO1 250128Z 21008KT 25/M03 A2974 RMK A01 T02531026  RH  016%=      5-min Rain = 0
KBO1 250129Z 22008KT 25/M03 A2974 RMK A01 T02521025  RH  016%=      5-min Rain = 0
KBO1 250130Z 22007KT 25/M02 A2974 RMK A01 T02501024  RH  016%=      5-min Rain = 0
KBO1 250131Z 22007KT 25/M02 A2974 RMK A01 T02491022  RH  017%=      5-min Rain = 0
KBO1 250132Z 22007KT 25/M02 A2973 RMK A01 T02461022  RH  017%=      5-min Rain = 0
KBO1 250133Z 23007KT 25/M02 A2973 RMK A01 T02451021  RH  017%=      5-min Rain = 0
KBO1 250134Z 23007KT 24/M02 A2973 RMK A01 T02431019  RH  017%=      5-min Rain = 0
KBO1 250135Z 23007KT 24/M02 A2973 RMK A01 T02411019  RH  018%=      5-min Rain = 0
KBO1 250136Z 23007KT 24/M02 A2973 RMK A01 T02391017  RH  018%=      5-min Rain = 0
KBO1 250137Z 23008KT 24/M02 A2973 RMK A01 T02381015  RH  019%=      5-min Rain = 0
KBO1 250138Z 23007KT 24/M01 A2973 RMK A01 T02361013  RH  019%=      5-min Rain = 0
KBO1 250139Z 23007KT 23/M01 A2973 RMK A01 T02341011  RH  020%=      5-min Rain = 0
KBO1 250140Z 23008KT 23/M01 A2973 RMK A01 T02321012  RH  020%=      5-min Rain = 0
KBO1 250141Z 23008KT 23/M01 A2973 RMK A01 T02311013  RH  020%=      5-min Rain = 0
KBO1 250142Z 23008KT 23/M01 A2973 RMK A01 T02301013  RH  020%=      5-min Rain = 0
KBO1 250143Z 23008KT 23/M01 A2973 RMK A01 T02281012  RH  020%=      5-min Rain = 0
KBO1 250144Z 23008KT 23/M01 A2973 RMK A01 T02271012  RH  020%=      5-min Rain = 0
KBO1 250145Z 23008KT 23/M01 A2973 RMK A01 T02251013  RH  020%=      5-min Rain = 0
KBO1 250146Z 23008KT 22/M01 A2973 RMK A01 T02231014  RH  020%=      5-min Rain = 0
KBO1 250147Z 22008KT 22/M02 A2973 RMK A01 T02211017  RH  020%=      5-min Rain = 0
KBO1 250148Z 22009KT 22/M02 A2973 RMK A01 T02211022  RH  020%=      5-min Rain = 0
KBO1 250149Z 22008KT 22/M02 A2973 RMK A01 T02221024  RH  019%=      5-min Rain = 0
KBO1 250150Z 22007KT 22/M02 A2973 RMK A01 T02241023  RH  019%=      5-min Rain = 0
KBO1 250151Z 22008KT 22/M02 A2973 RMK A01 T02241020  RH  020%=      5-min Rain = 0
KBO1 250152Z 21008KT 22/M02 A2973 RMK A01 T02221019  RH  020%=      5-min Rain = 0
KBO1 250153Z 21007KT 22/M02 A2973 RMK A01 T02201018  RH  020%=      5-min Rain = 0
KBO1 250154Z 21007KT 22/M02 A2973 RMK A01 T02181017  RH  021%=      5-min Rain = 0
KBO1 250155Z 21007KT 22/M02 A2974 RMK A01 T02161017  RH  021%=      5-min Rain = 0
KBO1 250156Z 21007KT 22/M02 A2974 RMK A01 T02151016  RH  021%=      5-min Rain = 0
KBO1 250157Z 21007KT 21/M02 A2974 RMK A01 T02121016  RH  022%=      5-min Rain = 0
KBO1 250158Z 21007KT 21/M02 A2974 RMK A01 T02101015  RH  022%=      5-min Rain = 0
KBO1 250159Z 21008KT 21/M02 A2974 RMK A01 T02091015  RH  022%=      5-min Rain = 0
KBO1 250200Z 21009KT 21/M02 A2974 RMK A01 T02071015  RH  022%=      5-min Rain = 0
KBO1 250201Z 21009KT 21/M02 A2974 RMK A01 T02071016  RH  022%=      5-min Rain = 0
KBO1 250202Z 22009KT 21/M02 A2974 RMK A01 T02061017  RH  022%=      5-min Rain = 0
KBO1 250203Z 22008KT 21/M02 A2974 RMK A01 T02061018  RH  022%=      5-min Rain = 0
KBO1 250204Z 22008KT 21/M02 A2974 RMK A01 T02051017  RH  023%=      5-min Rain = 0
KBO1 250205Z 22008KT 20/M02 A2974 RMK A01 T02031016  RH  023%=      5-min Rain = 0
KBO1 250206Z 22009KT 20/M02 A2975 RMK A01 T02021018  RH  023%=      5-min Rain = 0
KBO1 250207Z 22008KT 20/M02 A2975 RMK A01 T02021020  RH  022%=      5-min Rain = 0
KBO1 250208Z 22008KT 20/M02 A2975 RMK A01 T02021021  RH  022%=      5-min Rain = 0
KBO1 250209Z 21008KT 20/M02 A2975 RMK A01 T02031021  RH  022%=      5-min Rain = 0
KBO1 250210Z 21008KT 20/M02 A2975 RMK A01 T02031022  RH  022%=      5-min Rain = 0
KBO1 250211Z 21009KT 20/M02 A2975 RMK A01 T02041023  RH  022%=      5-min Rain = 0
KBO1 250212Z 21008KT 20/M02 A2975 RMK A01 T02041023  RH  022%=      5-min Rain = 0
KBO1 250213Z 21008KT 20/M02 A2975 RMK A01 T02031022  RH  022%=      5-min Rain = 0
KBO1 250214Z 21008KT 20/M02 A2975 RMK A01 T02021022  RH  022%=      5-min Rain = 0
KBO1 250215Z 22007KT 20/M02 A2975 RMK A01 T02011021  RH  022%=      5-min Rain = 0
KBO1 250216Z 22007KT 20/M02 A2975 RMK A01 T02001021  RH  023%=      5-min Rain = 0
KBO1 250217Z 22007KT 20/M02 A2975 RMK A01 T01981021  RH  023%=      5-min Rain = 0
KBO1 250218Z 22007KT 20/M02 A2975 RMK A01 T01971021  RH  023%=      5-min Rain = 0
KBO1 250219Z 23006KT 20/M02 A2975 RMK A01 T01971019  RH  023%=      5-min Rain = 0
KBO1 250220Z 22007KT 19/M02 A2975 RMK A01 T01941017  RH  024%=      5-min Rain = 0
KBO1 250221Z 22007KT 19/M02 A2975 RMK A01 T01921019  RH  024%=      5-min Rain = 0
KBO1 250222Z 22007KT 19/M02 A2975 RMK A01 T01921020  RH  024%=      5-min Rain = 0
KBO1 250223Z 22007KT 19/M02 A2976 RMK A01 T01911019  RH  024%=      5-min Rain = 0
KBO1 250224Z 22007KT 19/M02 A2976 RMK A01 T01901019  RH  024%=      5-min Rain = 0
KBO1 250225Z 22007KT 19/M02 A2976 RMK A01 T01891019  RH  024%=      5-min Rain = 0
KBO1 250226Z 22007KT 19/M02 A2976 RMK A01 T01881019  RH  024%=      5-min Rain = 0
KBO1 250227Z 22007KT 19/M02 A2976 RMK A01 T01871018  RH  025%=      5-min Rain = 0
KBO1 250228Z 22007KT 19/M02 A2976 RMK A01 T01861018  RH  025%=      5-min Rain = 0
KBO1 250229Z 22007KT 18/M02 A2976 RMK A01 T01841018  RH  025%=      5-min Rain = 0
KBO1 250230Z 22007KT 18/M02 A2976 RMK A01 T01841018  RH  025%=      5-min Rain = 0
KBO1 250231Z 21007KT 18/M02 A2976 RMK A01 T01831017  RH  026%=      5-min Rain = 0
KBO1 250232Z 21007KT 18/M02 A2976 RMK A01 T01811017  RH  026%=      5-min Rain = 0
KBO1 250233Z 21007KT 18/M02 A2976 RMK A01 T01811016  RH  026%=      5-min Rain = 0
KBO1 250234Z 21008KT 18/M02 A2976 RMK A01 T01801017  RH  026%=      5-min Rain = 0
KBO1 250235Z 22007KT 18/M02 A2976 RMK A01 T01801018  RH  026%=      5-min Rain = 0
KBO1 250236Z 21008KT 18/M02 A2976 RMK A01 T01801019  RH  026%=      5-min Rain = 0
KBO1 250237Z 21008KT 18/M02 A2976 RMK A01 T01811019  RH  026%=      5-min Rain = 0
KBO1 250238Z 22008KT 18/M02 A2976 RMK A01 T01821020  RH  025%=      5-min Rain = 0
KBO1 250239Z 22008KT 18/M02 A2976 RMK A01 T01821021  RH  025%=      5-min Rain = 0
KBO1 250240Z 22008KT 18/M02 A2976 RMK A01 T01821021  RH  025%=      5-min Rain = 0
KBO1 250241Z 22008KT 18/M02 A2976 RMK A01 T01821021  RH  025%=      5-min Rain = 0
KBO1 250242Z 22008KT 18/M02 A2976 RMK A01 T01831021  RH  025%=      5-min Rain = 0
KBO1 250243Z 22007KT 18/M02 A2976 RMK A01 T01831021  RH  025%=      5-min Rain = 0
KBO1 250244Z 21007KT 18/M02 A2976 RMK A01 T01831021  RH  025%=      5-min Rain = 0
KBO1 250245Z 22008KT 18/M02 A2976 RMK A01 T01831021  RH  025%=      5-min Rain = 0
KBO1 250246Z 21007KT 18/M02 A2976 RMK A01 T01841022  RH  025%=      5-min Rain = 0
KBO1 250247Z 21007KT 19/M02 A2976 RMK A01 T01851021  RH  025%=      5-min Rain = 0
KBO1 250248Z 22007KT 18/M02 A2976 RMK A01 T01841021  RH  025%=      5-min Rain = 0
KBO1 250249Z 21008KT 18/M02 A2976 RMK A01 T01841019  RH  025%=      5-min Rain = 0
KBO1 250250Z 22008KT 18/M02 A2976 RMK A01 T01831020  RH  025%=      5-min Rain = 0
KBO1 250251Z 21008KT 18/M02 A2976 RMK A01 T01831019  RH  025%=      5-min Rain = 0
KBO1 250252Z 21008KT 18/M02 A2976 RMK A01 T01831018  RH  026%=      5-min Rain = 0
KBO1 250253Z 21008KT 18/M02 A2976 RMK A01 T01811018  RH  026%=      5-min Rain = 0
KBO1 250254Z 21009KT 18/M02 A2976 RMK A01 T01811017  RH  026%=      5-min Rain = 0
KBO1 250255Z 21008KT 18/M02 A2976 RMK A01 T01801018  RH  026%=      5-min Rain = 0
KBO1 250256Z 21008KT 18/M02 A2976 RMK A01 T01801017  RH  026%=      5-min Rain = 0
KBO1 250257Z 21008KT 18/M02 A2976 RMK A01 T01791016  RH  026%=      5-min Rain = 0
KBO1 250258Z 21008KT 18/M02 A2976 RMK A01 T01791016  RH  027%=      5-min Rain = 0
KBO1 250259Z 21008KT 18/M02 A2977 RMK A01 T01791017  RH  026%=      5-min Rain = 0
KBO1 250300Z 21008KT 18/M02 A2977 RMK A01 T01781018  RH  026%=      5-min Rain = 0
KBO1 250301Z 21008KT 18/M02 A2977 RMK A01 T01791018  RH  026%=      5-min Rain = 0
KBO1 250302Z 21008KT 18/M02 A2977 RMK A01 T01791016  RH  026%=      5-min Rain = 0
KBO1 250303Z 21008KT 18/M01 A2977 RMK A01 T01781014  RH  027%=      5-min Rain = 0
KBO1 250304Z 21007KT 18/M01 A2977 RMK A01 T01771013  RH  027%=      5-min Rain = 0
KBO1 250305Z 21007KT 18/M01 A2977 RMK A01 T01761013  RH  028%=      5-min Rain = 0
KBO1 250306Z 21007KT 18/M01 A2977 RMK A01 T01751013  RH  028%=      5-min Rain = 0
KBO1 250307Z 21007KT 17/M01 A2977 RMK A01 T01741013  RH  028%=      5-min Rain = 0
KBO1 250308Z 21007KT 17/M01 A2977 RMK A01 T01741013  RH  028%=      5-min Rain = 0
KBO1 250309Z 21007KT 17/M01 A2977 RMK A01 T01741013  RH  028%=      5-min Rain = 0
KBO1 250310Z 21006KT 17/M02 A2977 RMK A01 T01731015  RH  028%=      5-min Rain = 0
KBO1 250311Z 21006KT 17/M02 A2977 RMK A01 T01741015  RH  028%=      5-min Rain = 0
KBO1 250312Z 21006KT 17/M02 A2977 RMK A01 T01741015  RH  028%=      5-min Rain = 0
KBO1 250313Z 22006KT 17/M02 A2977 RMK A01 T01741015  RH  028%=      5-min Rain = 0
KBO1 250314Z 22006KT 17/M02 A2977 RMK A01 T01741016  RH  027%=      5-min Rain = 0
KBO1 250315Z 22006KT 17/M02 A2977 RMK A01 T01741016  RH  027%=      5-min Rain = 0
KBO1 250316Z 22006KT 18/M02 A2977 RMK A01 T01751017  RH  027%=      5-min Rain = 0
KBO1 250317Z 22006KT 18/M02 A2977 RMK A01 T01751017  RH  027%=      5-min Rain = 0
KBO1 250318Z 21006KT 18/M02 A2977 RMK A01 T01761018  RH  027%=      5-min Rain = 0
KBO1 250319Z 22005KT 18/M02 A2977 RMK A01 T01761017  RH  027%=      5-min Rain = 0
KBO1 250320Z 22006KT 18/M02 A2977 RMK A01 T01771017  RH  027%=      5-min Rain = 0
KBO1 250321Z 22006KT 18/M02 A2977 RMK A01 T01781018  RH  026%=      5-min Rain = 0
KBO1 250322Z 22005KT 18/M02 A2977 RMK A01 T01781018  RH  026%=      5-min Rain = 0
KBO1 250323Z 22005KT 18/M02 A2977 RMK A01 T01781018  RH  026%=      5-min Rain = 0
KBO1 250324Z 22005KT 18/M02 A2977 RMK A01 T01791020  RH  026%=      5-min Rain = 0
KBO1 250325Z 22005KT 18/M02 A2977 RMK A01 T01811022  RH  025%=      5-min Rain = 0
KBO1 250326Z 23005KT 18/M02 A2977 RMK A01 T01831023  RH  025%=      5-min Rain = 0
KBO1 250327Z 23006KT 18/M02 A2977 RMK A01 T01841022  RH  025%=      5-min Rain = 0
KBO1 250328Z 23006KT 19/M02 A2977 RMK A01 T01851023  RH  024%=      5-min Rain = 0
KBO1 250329Z 23006KT 19/M02 A2977 RMK A01 T01861024  RH  024%=      5-min Rain = 0
KBO1 250330Z 23006KT 19/M03 A2977 RMK A01 T01871025  RH  024%=      5-min Rain = 0
KBO1 250331Z 23007KT 19/M03 A2977 RMK A01 T01891025  RH  023%=      5-min Rain = 0
KBO1 250332Z 23007KT 19/M03 A2977 RMK A01 T01891025  RH  023%=      5-min Rain = 0
KBO1 250333Z 23007KT 19/M03 A2977 RMK A01 T01891026  RH  023%=      5-min Rain = 0
KBO1 250334Z 24007KT 19/M02 A2977 RMK A01 T01901024  RH  023%=      5-min Rain = 0
KBO1 250335Z 24008KT 19/M02 A2977 RMK A01 T01891022  RH  024%=      5-min Rain = 0
KBO1 250336Z 24008KT 19/M02 A2977 RMK A01 T01891020  RH  024%=      5-min Rain = 0
KBO1 250337Z 25008KT 19/M02 A2977 RMK A01 T01881019  RH  025%=      5-min Rain = 0
KBO1 250338Z 25009KT 19/M02 A2977 RMK A01 T01871017  RH  025%=      5-min Rain = 0
KBO1 250339Z 25009KT 19/M02 A2977 RMK A01 T01871016  RH  025%=      5-min Rain = 0
KBO1 250340Z 25009KT 19/M01 A2977 RMK A01 T01871014  RH  026%=      5-min Rain = 0
KBO1 250341Z 25009KT 19/M02 A2977 RMK A01 T01861015  RH  026%=      5-min Rain = 0
KBO1 250342Z 25009KT 19/M02 A2977 RMK A01 T01861015  RH  025%=      5-min Rain = 0
KBO1 250343Z 25009KT 19/M02 A2976 RMK A01 T01861017  RH  025%=      5-min Rain = 0
KBO1 250344Z 26010KT 19/M02 A2976 RMK A01 T01871017  RH  025%=      5-min Rain = 0
KBO1 250345Z 27010KT 19/M02 A2977 RMK A01 T01871015  RH  025%=      5-min Rain = 0
KBO1 250346Z 28010KT 19/M01 A2977 RMK A01 T01861013  RH  026%=      5-min Rain = 0
KBO1 250347Z 28011KT 19/M01 A2977 RMK A01 T01851014  RH  026%=      5-min Rain = 0
KBO1 250348Z 28009KT 18/M02 A2977 RMK A01 T01841016  RH  026%=      5-min Rain = 0
KBO1 250349Z 28010KT 18/M02 A2977 RMK A01 T01831015  RH  026%=      5-min Rain = 0
KBO1 250350Z 28010KT 18/M01 A2977 RMK A01 T01831014  RH  026%=      5-min Rain = 0
KBO1 250351Z 28009KT 18/M01 A2977 RMK A01 T01831014  RH  026%=      5-min Rain = 0
KBO1 250352Z 27009KT 18/M01 A2976 RMK A01 T01821014  RH  026%=      5-min Rain = 0
KBO1 250353Z 27009KT 18/M02 A2976 RMK A01 T01821015  RH  026%=      5-min Rain = 0
KBO1 250354Z 27009KT 18/M02 A2976 RMK A01 T01841017  RH  026%=      5-min Rain = 0
KBO1 250355Z 27009KT 19/M02 A2976 RMK A01 T01861017  RH  025%=      5-min Rain = 0
KBO1 250356Z 27009KT 19/M02 A2976 RMK A01 T01881018  RH  025%=      5-min Rain = 0
KBO1 250357Z 27010KT 19/M02 A2976 RMK A01 T01891018  RH  024%=      5-min Rain = 0
KBO1 250358Z 27010KT 19/M02 A2976 RMK A01 T01911018  RH  024%=      5-min Rain = 0
KBO1 250359Z 28009KT 19/M02 A2976 RMK A01 T01921019  RH  024%=      5-min Rain = 0
KBO1 250400Z 28008KT 19/M02 A2976 RMK A01 T01931019  RH  024%=      5-min Rain = 0
KBO1 250401Z 28009KT 19/M02 A2977 RMK A01 T01931019  RH  024%=      5-min Rain = 0
KBO1 250402Z 28009KT 19/M02 A2977 RMK A01 T01931018  RH  024%=      5-min Rain = 0
KBO1 250403Z 28008KT 19/M02 A2977 RMK A01 T01931019  RH  024%=      5-min Rain = 0
KBO1 250404Z 28009KT 19/M02 A2977 RMK A01 T01941018  RH  024%=      5-min Rain = 0
KBO1 250405Z 28009KT 19/M02 A2977 RMK A01 T01941019  RH  024%=      5-min Rain = 0
KBO1 250406Z 28009KT 20/M02 A2977 RMK A01 T01951019  RH  024%=      5-min Rain = 0
KBO1 250407Z 28008KT 20/M02 A2977 RMK A01 T01951018  RH  024%=      5-min Rain = 0
KBO1 250408Z 28008KT 20/M02 A2977 RMK A01 T01951017  RH  024%=      5-min Rain = 0
KBO1 250409Z 27008KT 19/M02 A2977 RMK A01 T01941017  RH  024%=      5-min Rain = 0
KBO1 250410Z 27007KT 19/M02 A2977 RMK A01 T01941016  RH  024%=      5-min Rain = 0
KBO1 250411Z 28006KT 19/M02 A2977 RMK A01 T01931016  RH  024%=      5-min Rain = 0
KBO1 250412Z 28007KT 19/M02 A2977 RMK A01 T01921015  RH  025%=      5-min Rain = 0
KBO1 250413Z 28009KT 19/M01 A2977 RMK A01 T01911014  RH  025%=      5-min Rain = 0
KBO1 250414Z 28010KT 19/M02 A2978 RMK A01 T01901015  RH  025%=      5-min Rain = 0
KBO1 250415Z 28009KT 19/M02 A2978 RMK A01 T01901017  RH  025%=      5-min Rain = 0
KBO1 250416Z 28008KT 19/M02 A2978 RMK A01 T01911017  RH  024%=      5-min Rain = 0
KBO1 250417Z 27009KT 19/M02 A2978 RMK A01 T01921016  RH  025%=      5-min Rain = 0
KBO1 250418Z 28008KT 19/M02 A2978 RMK A01 T01911015  RH  025%=      5-min Rain = 0
KBO1 250419Z 28008KT 19/M02 A2978 RMK A01 T01911015  RH  025%=      5-min Rain = 0
KBO1 250420Z 28009KT 19/M02 A2978 RMK A01 T01911015  RH  025%=      5-min Rain = 0
KBO1 250421Z 28009KT 19/M01 A2978 RMK A01 T01901014  RH  025%=      5-min Rain = 0
KBO1 250422Z 28009KT 19/M02 A2978 RMK A01 T01901015  RH  025%=      5-min Rain = 0
KBO1 250423Z 28008KT 19/M02 A2978 RMK A01 T01901015  RH  025%=      5-min Rain = 0
KBO1 250424Z 28008KT 19/M02 A2978 RMK A01 T01891016  RH  025%=      5-min Rain = 0
KBO1 250425Z 28008KT 19/M02 A2978 RMK A01 T01901016  RH  025%=      5-min Rain = 0
KBO1 250426Z 29009KT 19/M02 A2978 RMK A01 T01911016  RH  025%=      5-min Rain = 0
KBO1 250427Z 29009KT 19/M02 A2978 RMK A01 T01921015  RH  025%=      5-min Rain = 0
KBO1 250428Z 29008KT 19/M02 A2978 RMK A01 T01921015  RH  025%=      5-min Rain = 0
KBO1 250429Z 29008KT 19/M02 A2978 RMK A01 T01921015  RH  025%=      5-min Rain = 0
KBO1 250430Z 29008KT 19/M02 A2978 RMK A01 T01921015  RH  025%=      5-min Rain = 0
KBO1 250431Z 29008KT 19/M01 A2978 RMK A01 T01921014  RH  025%=      5-min Rain = 0
KBO1 250432Z 29007KT 19/M02 A2978 RMK A01 T01911015  RH  025%=      5-min Rain = 0
KBO1 250433Z 29007KT 19/M01 A2978 RMK A01 T01911014  RH  025%=      5-min Rain = 0
KBO1 250434Z 29007KT 19/M01 A2978 RMK A01 T01911014  RH  025%=      5-min Rain = 0
KBO1 250435Z 29007KT 19/M02 A2978 RMK A01 T01911015  RH  025%=      5-min Rain = 0
KBO1 250436Z 29007KT 19/M02 A2978 RMK A01 T01901015  RH  025%=      5-min Rain = 0
KBO1 250437Z 29007KT 19/M01 A2978 RMK A01 T01901014  RH  025%=      5-min Rain = 0
KBO1 250438Z 29007KT 19/M01 A2978 RMK A01 T01901014  RH  025%=      5-min Rain = 0
KBO1 250439Z 29007KT 19/M02 A2978 RMK A01 T01901015  RH  025%=      5-min Rain = 0
KBO1 250440Z 30006KT 19/M01 A2978 RMK A01 T01911014  RH  025%=      5-min Rain = 0
KBO1 250441Z 30006KT 19/M01 A2978 RMK A01 T01901014  RH  025%=      5-min Rain = 0
KBO1 250442Z 30006KT 19/M02 A2978 RMK A01 T01911015  RH  025%=      5-min Rain = 0
KBO1 250443Z 30006KT 19/M02 A2978 RMK A01 T01911015  RH  025%=      5-min Rain = 0
KBO1 250444Z 30005KT 19/M02 A2978 RMK A01 T01921016  RH  024%=      5-min Rain = 0
KBO1 250445Z 30005KT 19/M02 A2978 RMK A01 T01931016  RH  024%=      5-min Rain = 0
KBO1 250446Z 29005KT 20/M02 A2978 RMK A01 T01951017  RH  024%=      5-min Rain = 0
KBO1 250447Z 29004KT 20/M02 A2978 RMK A01 T01961018  RH  023%=      5-min Rain = 0
KBO1 250448Z 29004KT 20/M02 A2978 RMK A01 T01971019  RH  023%=      5-min Rain = 0
KBO1 250449Z 29004KT 20/M02 A2978 RMK A01 T01991021  RH  023%=      5-min Rain = 0
KBO1 250450Z 29004KT 20/M02 A2978 RMK A01 T02001021  RH  022%=      5-min Rain = 0
KBO1 250451Z 29004KT 20/M02 A2978 RMK A01 T02011021  RH  022%=      5-min Rain = 0
KBO1 250452Z 29004KT 20/M02 A2978 RMK A01 T02021022  RH  022%=      5-min Rain = 0
KBO1 250453Z 28003KT 20/M02 A2978 RMK A01 T02021023  RH  022%=      5-min Rain = 0
KBO1 250454Z 28003KT 20/M02 A2978 RMK A01 T02031019  RH  022%=      5-min Rain = 0
KBO1 250455Z 27002KT 20/M01 A2978 RMK A01 T02011008  RH  024%=      5-min Rain = 0
KBO1 250456Z 27002KT 20/M01 A2978 RMK A01 T01971008  RH  025%=      5-min Rain = 0
KBO1 250457Z 27002KT 19/M00 A2978 RMK A01 T01941002  RH  027%=      5-min Rain = 0
KBO1 250458Z 29002KT 19/M00 A2979 RMK A01 T01911003  RH  027%=      5-min Rain = 0
KBO1 250459Z 31003KT 19/M01 A2979 RMK A01 T01901005  RH  027%=      5-min Rain = 0

Page generated in 1.3123 seconds.